Wetterdaten: Mittwoch, 22.01.2020
Datum Zeit Temp. Aussen Temp. o. S. Temp +5cm Feuchte Auss Luftdruck Regen Sonnenschein Regendauer Solar Windben Empfang
22.01.2020 00:00 -3,1 C -3,9 C -3,9 C 96 % 1039,3 hPa 0,0 l/m 0 min 0 min 0 W/m 0,0 km/h (0 Bft) 100,00 %
22.01.2020 00:02 -3,1 C -3,9 C -3,9 C 96 % 1039,4 hPa 0,0 l/m 0 min 0 min 0 W/m 0,0 km/h (0 Bft) 9,09 %
22.01.2020 00:04 -3,1 C -3,9 C -3,9 C 96 % 1039,4 hPa 0,0 l/m 0 min 0 min 0 W/m 0,0 km/h (0 Bft) 97,30 %
22.01.2020 00:08 -3,1 C -3,9 C -3,9 C 96 % 1039,3 hPa 0,0 l/m 0 min 0 min 0 W/m 0,0 km/h (0 Bft) 97,87 %
22.01.2020 00:10 -3,1 C -3,9 C -3,9 C 96 % 1039,4 hPa 0,0 l/m 0 min 0 min 0 W/m 0,0 km/h (0 Bft) 98,11 %
22.01.2020 00:12 -3,1 C -3,9 C -3,9 C 96 % 1039,5 hPa 0,0 l/m 0 min 0 min 0 W/m 0,0 km/h (0 Bft) 98,00 %
22.01.2020 00:14 -3,1 C -3,9 C -3,9 C 96 % 1039,3 hPa 0,0 l/m 0 min 0 min 0 W/m 0,0 km/h (0 Bft) 97,30 %
22.01.2020 00:16 -3,0 C -3,9 C -3,9 C 96 % 1039,4 hPa 0,0 l/m 0 min 0 min 0 W/m 0,0 km/h (0 Bft) 97,87 %
22.01.2020 00:18 -3,0 C -3,9 C -3,9 C 96 % 1039,4 hPa 0,0 l/m 0 min 0 min 0 W/m 0,0 km/h (0 Bft) 97,87 %
22.01.2020 00:20 -3,0 C -3,9 C -3,9 C 96 % 1039,4 hPa 0,0 l/m 0 min 0 min 0 W/m 0,0 km/h (0 Bft) 97,87 %
22.01.2020 00:22 -3,0 C -3,9 C -3,9 C 96 % 1039,4 hPa 0,0 l/m 0 min 0 min 0 W/m 0,0 km/h (0 Bft) 95,74 %
22.01.2020 00:24 -3,0 C -3,3 C -3,9 C 96 % 1039,4 hPa 0,0 l/m 0 min 0 min 0 W/m 0,0 km/h (0 Bft) 98,11 %
22.01.2020 00:26 -2,9 C -3,3 C -3,9 C 96 % 1039,5 hPa 0,0 l/m 0 min 0 min 0 W/m 6,4 km/h (2 Bft) 97,96 %
22.01.2020 00:28 -2,9 C -3,3 C -3,9 C 96 % 1039,4 hPa 0,0 l/m 0 min 0 min 0 W/m 6,4 km/h (2 Bft) 97,87 %
22.01.2020 00:30 -2,9 C -3,9 C -3,9 C 96 % 1039,4 hPa 0,0 l/m 0 min 0 min 0 W/m 0,0 km/h (0 Bft) 97,37 %
22.01.2020 00:32 -2,9 C -3,9 C -3,9 C 96 % 1039,4 hPa 0,0 l/m 0 min 0 min 0 W/m 0,0 km/h (0 Bft) 95,74 %
22.01.2020 00:34 -2,9 C -3,3 C -3,9 C 96 % 1039,4 hPa 0,0 l/m 0 min 0 min 0 W/m 0,0 km/h (0 Bft) 37,50 %
22.01.2020 00:36 -2,9 C -3,3 C -3,9 C 96 % 1039,4 hPa 0,0 l/m 0 min 0 min 0 W/m 6,4 km/h (2 Bft) 97,87 %
22.01.2020 00:38 -2,9 C -3,3 C -3,3 C 96 % 1039,5 hPa 0,0 l/m 0 min 0 min 0 W/m 0,0 km/h (0 Bft) 94,34 %
22.01.2020 00:40 -2,9 C -3,3 C -3,3 C 96 % 1039,6 hPa 0,0 l/m 0 min 0 min 0 W/m 9,7 km/h (2 Bft) 97,87 %
22.01.2020 00:42 -2,9 C -3,3 C -3,3 C 96 % 1039,7 hPa 0,0 l/m 0 min 0 min 0 W/m 9,7 km/h (2 Bft) 96,00 %
22.01.2020 00:44 -2,9 C -3,3 C -3,3 C 96 % 1039,7 hPa 0,0 l/m 0 min 0 min 0 W/m 9,7 km/h (2 Bft) 94,74 %
22.01.2020 00:46 -2,9 C -3,3 C -3,3 C 96 % 1039,6 hPa 0,0 l/m 0 min 0 min 0 W/m 0,0 km/h (0 Bft) 97,83 %
22.01.2020 00:48 -2,8 C -3,3 C -3,3 C 96 % 1039,7 hPa 0,0 l/m 0 min 0 min 0 W/m 6,4 km/h (2 Bft) 97,87 %
22.01.2020 00:50 -2,8 C -3,3 C -3,3 C 96 % 1039,7 hPa 0,0 l/m 0 min 0 min 0 W/m 9,7 km/h (2 Bft) 96,23 %
22.01.2020 00:52 -2,8 C -3,3 C -3,3 C 97 % 1039,7 hPa 0,0 l/m 0 min 0 min 0 W/m 0,0 km/h (0 Bft) 100,00 %
22.01.2020 00:54 -2,7 C -3,3 C -3,3 C 97 % 1039,7 hPa 0,0 l/m 0 min 0 min 0 W/m 0,0 km/h (0 Bft) 97,37 %
22.01.2020 00:56 -2,7 C -2,8 C -3,3 C 97 % 1039,6 hPa 0,0 l/m 0 min 0 min 0 W/m 0,0 km/h (0 Bft) 97,87 %
22.01.2020 00:58 -2,7 C -2,8 C -3,3 C 96 % 1039,6 hPa 0,0 l/m 0 min 0 min 0 W/m 3,2 km/h (1 Bft) 97,83 %
22.01.2020 01:00 -2,6 C -2,8 C -2,8 C 97 % 1039,6 hPa 0,0 l/m 0 min 0 min 0 W/m 6,4 km/h (2 Bft) 98,11 %
22.01.2020 01:02 -2,6 C -2,8 C -2,8 C 97 % 1039,7 hPa 0,0 l/m 0 min 0 min 0 W/m 6,4 km/h (2 Bft) 98,00 %
22.01.2020 01:04 -2,5 C -2,8 C -2,8 C 97 % 1039,7 hPa 0,0 l/m 0 min 0 min 0 W/m 3,2 km/h (1 Bft) 97,37 %
22.01.2020 01:06 -2,5 C -2,8 C -2,8 C 97 % 1039,6 hPa 0,0 l/m 0 min 0 min 0 W/m 0,0 km/h (0 Bft) 97,87 %
22.01.2020 01:08 -2,5 C -2,8 C -2,8 C 97 % 1039,6 hPa 0,0 l/m 0 min 0 min 0 W/m 0,0 km/h (0 Bft) 97,87 %
22.01.2020 01:10 -2,4 C -2,8 C -2,8 C 97 % 1039,5 hPa 0,0 l/m 0 min 0 min 0 W/m 3,2 km/h (1 Bft) 97,83 %
22.01.2020 01:12 -2,4 C -2,8 C -2,8 C 97 % 1039,5 hPa 0,0 l/m 0 min 0 min 0 W/m 3,2 km/h (1 Bft) 97,87 %
22.01.2020 01:14 -2,4 C -2,8 C -2,8 C 97 % 1039,5 hPa 0,0 l/m 0 min 0 min 0 W/m 0,0 km/h (0 Bft) 94,34 %
22.01.2020 01:16 -2,4 C -2,8 C -2,8 C 97 % 1039,3 hPa 0,0 l/m 0 min 0 min 0 W/m 0,0 km/h (0 Bft) 98,00 %
22.01.2020 01:18 -2,4 C -2,8 C -2,8 C 97 % 1039,3 hPa 0,0 l/m 0 min 0 min 0 W/m 0,0 km/h (0 Bft) 95,74 %
22.01.2020 01:20 -2,4 C -2,8 C -2,8 C 97 % 1039,2 hPa 0,0 l/m 0 min 0 min 0 W/m 0,0 km/h (0 Bft) 95,74 %
22.01.2020 01:22 -2,4 C -2,8 C -3,3 C 97 % 1039,2 hPa 0,0 l/m 0 min 0 min 0 W/m 0,0 km/h (0 Bft) 97,83 %
22.01.2020 01:24 -2,3 C -2,8 C -2,8 C 97 % 1039,1 hPa 0,0 l/m 0 min 0 min 0 W/m 0,0 km/h (0 Bft) 97,37 %
22.01.2020 01:26 -2,3 C -2,8 C -3,3 C 97 % 1039,0 hPa 0,0 l/m 0 min 0 min 0 W/m 0,0 km/h (0 Bft) 95,74 %
22.01.2020 01:28 -2,3 C -2,8 C -3,3 C 97 % 1039,0 hPa 0,0 l/m 0 min 0 min 0 W/m 0,0 km/h (0 Bft) 91,49 %
22.01.2020 01:30 -2,3 C -2,8 C -3,3 C 97 % 1039,0 hPa 0,0 l/m 0 min 0 min 0 W/m 0,0 km/h (0 Bft) 96,23 %
22.01.2020 01:32 -2,3 C -2,8 C -2,8 C 97 % 1039,0 hPa 0,0 l/m 0 min 0 min 0 W/m 0,0 km/h (0 Bft) 94,00 %
22.01.2020 01:34 -2,3 C -2,8 C -3,3 C 97 % 1039,0 hPa 0,0 l/m 0 min 0 min 0 W/m 0,0 km/h (0 Bft) 94,59 %
22.01.2020 01:36 -2,3 C -2,8 C -3,3 C 97 % 1039,0 hPa 0,0 l/m 0 min 0 min 0 W/m 0,0 km/h (0 Bft) 95,74 %
22.01.2020 01:38 -2,3 C -2,8 C -2,8 C 97 % 1039,1 hPa 0,0 l/m 0 min 0 min 0 W/m 3,2 km/h (1 Bft) 95,74 %
22.01.2020 01:40 -2,3 C -2,8 C -3,3 C 97 % 1039,2 hPa 0,0 l/m 0 min 0 min 0 W/m 3,2 km/h (1 Bft) 95,74 %
22.01.2020 01:42 -2,3 C -3,3 C -3,3 C 97 % 1039,2 hPa 0,0 l/m 0 min 0 min 0 W/m 0,0 km/h (0 Bft) 95,74 %
22.01.2020 01:44 -2,3 C -2,8 C -3,3 C 97 % 1039,1 hPa 0,0 l/m 0 min 0 min 0 W/m 0,0 km/h (0 Bft) 95,65 %
22.01.2020 01:46 -2,3 C -2,8 C -3,3 C 97 % 1039,1 hPa 0,0 l/m 0 min 0 min 0 W/m 0,0 km/h (0 Bft) 93,62 %
22.01.2020 01:48 -2,3 C -2,8 C -3,3 C 97 % 1039,1 hPa 0,0 l/m 0 min 0 min 0 W/m 0,0 km/h (0 Bft) 96,23 %
22.01.2020 01:50 -2,3 C -2,8 C -3,3 C 97 % 1039,0 hPa 0,0 l/m 0 min 0 min 0 W/m 0,0 km/h (0 Bft) 97,87 %
22.01.2020 01:52 -2,3 C -2,8 C -3,3 C 97 % 1039,1 hPa 0,0 l/m 0 min 0 min 0 W/m 0,0 km/h (0 Bft) 95,74 %
22.01.2020 01:54 -2,3 C -2,8 C -2,8 C 97 % 1039,1 hPa 0,0 l/m 0 min 0 min 0 W/m 0,0 km/h (0 Bft) 98,00 %
22.01.2020 01:56 -2,3 C -2,8 C -2,8 C 97 % 1039,1 hPa 0,0 l/m 0 min 0 min 0 W/m 3,2 km/h (1 Bft) 97,87 %
22.01.2020 01:58 -2,3 C -2,8 C -3,3 C 97 % 1039,1 hPa 0,0 l/m 0 min 0 min 0 W/m 0,0 km/h (0 Bft) 97,30 %
22.01.2020 02:00 -2,3 C -2,8 C -3,3 C 97 % 1039,0 hPa 0,0 l/m 0 min 0 min 0 W/m 0,0 km/h (0 Bft) 97,87 %
22.01.2020 02:02 -2,3 C -3,3 C -3,3 C 97 % 1039,1 hPa 0,0 l/m 0 min 0 min 0 W/m 0,0 km/h (0 Bft) 97,87 %
22.01.2020 02:04 -2,3 C -2,8 C -3,3 C 97 % 1039,1 hPa 0,0 l/m 0 min 0 min 0 W/m 3,2 km/h (1 Bft) 96,23 %
22.01.2020 02:06 -2,3 C -3,3 C -3,3 C 97 % 1039,1 hPa 0,0 l/m 0 min 0 min 0 W/m 0,0 km/h (0 Bft) 94,00 %
22.01.2020 02:08 -2,3 C -3,3 C -3,3 C 97 % 1039,1 hPa 0,0 l/m 0 min 0 min 0 W/m 3,2 km/h (1 Bft) 100,00 %
22.01.2020 02:10 -2,3 C -3,3 C -3,3 C 97 % 1039,1 hPa 0,0 l/m 0 min 0 min 0 W/m 0,0 km/h (0 Bft) 97,87 %
22.01.2020 02:12 -2,3 C -2,8 C -3,3 C 97 % 1039,0 hPa 0,0 l/m 0 min 0 min 0 W/m 0,0 km/h (0 Bft) 94,34 %
22.01.2020 02:14 -2,3 C -2,8 C -3,3 C 97 % 1039,0 hPa 0,0 l/m 0 min 0 min 0 W/m 0,0 km/h (0 Bft) 98,00 %
22.01.2020 02:16 -2,3 C -3,3 C -3,3 C 97 % 1038,9 hPa 0,0 l/m 0 min 0 min 0 W/m 0,0 km/h (0 Bft) 95,74 %
22.01.2020 02:18 -2,3 C -3,3 C -3,3 C 97 % 1038,9 hPa 0,0 l/m 0 min 0 min 0 W/m 0,0 km/h (0 Bft) 97,87 %
22.01.2020 02:20 -2,4 C -3,3 C -3,3 C 97 % 1038,9 hPa 0,0 l/m 0 min 0 min 0 W/m 0,0 km/h (0 Bft) 94,59 %
22.01.2020 02:22 -2,4 C -3,3 C -3,3 C 97 % 1038,9 hPa 0,0 l/m 0 min 0 min 0 W/m 0,0 km/h (0 Bft) 95,74 %
22.01.2020 02:24 -2,4 C -3,3 C -3,3 C 97 % 1038,9 hPa 0,0 l/m 0 min 0 min 0 W/m 0,0 km/h (0 Bft) 100,00 %
22.01.2020 02:26 -2,4 C -3,3 C -3,3 C 97 % 1038,9 hPa 0,0 l/m 0 min 0 min 0 W/m 0,0 km/h (0 Bft) 100,00 %
22.01.2020 02:28 -2,4 C -3,3 C -3,3 C 97 % 1038,9 hPa 0,0 l/m 0 min 0 min 0 W/m 0,0 km/h (0 Bft) 98,00 %
22.01.2020 02:30 -2,4 C -3,3 C -3,3 C 97 % 1038,9 hPa 0,0 l/m 0 min 0 min 0 W/m 0,0 km/h (0 Bft) 97,30 %
22.01.2020 02:32 -2,4 C -3,3 C -3,3 C 97 % 1038,9 hPa 0,0 l/m 0 min 0 min 0 W/m 0,0 km/h (0 Bft) 97,87 %
22.01.2020 02:34 -2,4 C -3,3 C -3,3 C 97 % 1038,9 hPa 0,0 l/m 0 min 0 min 0 W/m 0,0 km/h (0 Bft) 100,00 %
22.01.2020 02:36 -2,4 C -3,3 C -3,3 C 97 % 1038,8 hPa 0,0 l/m 0 min 0 min 0 W/m 0,0 km/h (0 Bft) 100,00 %
22.01.2020 02:38 -2,4 C -3,3 C -3,3 C 97 % 1038,8 hPa 0,0 l/m 0 min 0 min 0 W/m 0,0 km/h (0 Bft) 100,00 %
22.01.2020 02:40 -2,4 C -3,3 C -3,3 C 97 % 1038,7 hPa 0,0 l/m 0 min 0 min 0 W/m 0,0 km/h (0 Bft) 100,00 %
22.01.2020 02:42 -2,5 C -3,3 C -3,3 C 97 % 1038,7 hPa 0,0 l/m 0 min 0 min 0 W/m 0,0 km/h (0 Bft) 100,00 %
22.01.2020 02:44 -2,5 C -3,3 C -3,3 C 97 % 1038,7 hPa 0,0 l/m 0 min 0 min 0 W/m 0,0 km/h (0 Bft) 97,83 %
22.01.2020 02:46 -2,5 C -2,8 C -3,3 C 97 % 1038,6 hPa 0,0 l/m 0 min 0 min 0 W/m 0,0 km/h (0 Bft) 98,00 %
22.01.2020 02:48 -2,5 C -2,8 C -3,3 C 97 % 1038,6 hPa 0,0 l/m 0 min 0 min 0 W/m 0,0 km/h (0 Bft) 97,87 %
22.01.2020 02:50 -2,5 C -2,8 C -3,3 C 97 % 1038,6 hPa 0,0 l/m 0 min 0 min 0 W/m 0,0 km/h (0 Bft) 97,37 %
22.01.2020 02:52 -2,5 C -2,8 C -3,3 C 97 % 1038,7 hPa 0,0 l/m 0 min 0 min 0 W/m 0,0 km/h (0 Bft) 95,65 %
22.01.2020 02:54 -2,5 C -2,8 C -3,3 C 97 % 1038,6 hPa 0,0 l/m 0 min 0 min 0 W/m 0,0 km/h (0 Bft) 95,74 %
22.01.2020 02:56 -2,5 C -2,8 C -3,3 C 97 % 1038,6 hPa 0,0 l/m 0 min 0 min 0 W/m 0,0 km/h (0 Bft) 97,87 %
22.01.2020 02:58 -2,5 C -2,8 C -3,3 C 97 % 1038,7 hPa 0,0 l/m 0 min 0 min 0 W/m 0,0 km/h (0 Bft) 96,23 %
22.01.2020 03:00 -2,5 C -2,8 C -3,3 C 97 % 1038,6 hPa 0,0 l/m 0 min 0 min 0 W/m 0,0 km/h (0 Bft) 98,00 %
22.01.2020 03:02 -2,5 C -2,8 C -3,3 C 98 % 1038,7 hPa 0,0 l/m 0 min 0 min 0 W/m 0,0 km/h (0 Bft) 97,37 %
22.01.2020 03:04 -2,5 C -2,8 C -2,8 C 98 % 1038,7 hPa 0,0 l/m 0 min 0 min 0 W/m 0,0 km/h (0 Bft) 97,87 %
22.01.2020 03:06 -2,4 C -2,8 C -3,3 C 98 % 1038,7 hPa 0,0 l/m 0 min 0 min 0 W/m 0,0 km/h (0 Bft) 96,23 %
22.01.2020 03:08 -2,4 C -2,8 C -3,3 C 98 % 1038,7 hPa 0,0 l/m 0 min 0 min 0 W/m 0,0 km/h (0 Bft) 97,96 %
22.01.2020 03:10 -2,4 C -2,8 C -3,3 C 98 % 1038,6 hPa 0,0 l/m 0 min 0 min 0 W/m 0,0 km/h (0 Bft) 97,87 %
22.01.2020 03:12 -2,4 C -2,8 C -3,3 C 98 % 1038,6 hPa 0,0 l/m 0 min 0 min 0 W/m 0,0 km/h (0 Bft) 94,74 %
22.01.2020 03:14 -2,4 C -2,8 C -3,3 C 98 % 1038,6 hPa 0,0 l/m 0 min 0 min 0 W/m 0,0 km/h (0 Bft) 95,74 %
22.01.2020 03:16 -2,4 C -2,8 C -3,3 C 97 % 1038,6 hPa 0,0 l/m 0 min 0 min 0 W/m 0,0 km/h (0 Bft) 97,83 %
22.01.2020 03:18 -2,4 C -2,8 C -3,3 C 97 % 1038,6 hPa 0,0 l/m 0 min 0 min 0 W/m 0,0 km/h (0 Bft) 97,87 %
22.01.2020 03:20 -2,4 C -2,8 C -3,3 C 97 % 1038,6 hPa 0,0 l/m 0 min 0 min 0 W/m 0,0 km/h (0 Bft) 95,74 %
22.01.2020 03:22 -2,4 C -2,8 C -2,8 C 97 % 1038,6 hPa 0,0 l/m 0 min 0 min 0 W/m 0,0 km/h (0 Bft) 96,23 %
22.01.2020 03:24 -2,4 C -2,8 C -3,3 C 98 % 1038,6 hPa 0,0 l/m 0 min 0 min 0 W/m 0,0 km/h (0 Bft) 96,00 %
22.01.2020 03:26 -2,4 C -2,8 C -3,3 C 98 % 1038,5 hPa 0,0 l/m 0 min 0 min 0 W/m 0,0 km/h (0 Bft) 97,37 %
22.01.2020 03:28 -2,4 C -2,8 C -2,8 C 97 % 1038,5 hPa 0,0 l/m 0 min 0 min 0 W/m 0,0 km/h (0 Bft) 97,83 %
22.01.2020 03:30 -2,4 C -2,8 C -2,8 C 98 % 1038,4 hPa 0,0 l/m 0 min 0 min 0 W/m 0,0 km/h (0 Bft) 94,34 %
22.01.2020 03:32 -2,4 C -2,8 C -2,8 C 98 % 1038,4 hPa 0,0 l/m 0 min 0 min 0 W/m 0,0 km/h (0 Bft) 98,00 %
22.01.2020 03:34 -2,3 C -2,8 C -2,8 C 98 % 1038,3 hPa 0,0 l/m 0 min 0 min 0 W/m 0,0 km/h (0 Bft) 97,37 %
22.01.2020 03:36 -2,3 C -2,8 C -2,8 C 98 % 1038,3 hPa 0,0 l/m 0 min 0 min 0 W/m 0,0 km/h (0 Bft) 97,87 %
22.01.2020 03:38 -2,3 C -2,8 C -2,8 C 98 % 1038,3 hPa 0,0 l/m 0 min 0 min 0 W/m 0,0 km/h (0 Bft) 97,87 %
22.01.2020 03:40 -2,3 C -2,8 C -2,8 C 98 % 1038,3 hPa 0,0 l/m 0 min 0 min 0 W/m 0,0 km/h (0 Bft) 93,48 %
22.01.2020 03:42 -2,3 C -2,8 C -2,8 C 98 % 1038,2 hPa 0,0 l/m 0 min 0 min 0 W/m 0,0 km/h (0 Bft) 97,87 %
22.01.2020 03:44 -2,3 C -2,8 C -2,8 C 98 % 1038,2 hPa 0,0 l/m 0 min 0 min 0 W/m 0,0 km/h (0 Bft) 98,11 %
22.01.2020 03:46 -2,3 C -2,8 C -2,8 C 98 % 1038,2 hPa 0,0 l/m 0 min 0 min 0 W/m 0,0 km/h (0 Bft) 98,00 %
22.01.2020 03:48 -2,3 C -2,8 C -2,8 C 98 % 1038,1 hPa 0,0 l/m 0 min 0 min 0 W/m 0,0 km/h (0 Bft) 97,37 %
22.01.2020 03:50 -2,3 C -2,8 C -2,8 C 98 % 1038,2 hPa 0,0 l/m 0 min 0 min 0 W/m 0,0 km/h (0 Bft) 97,87 %
22.01.2020 03:52 -2,3 C -2,8 C -2,8 C 98 % 1038,2 hPa 0,0 l/m 0 min 0 min 0 W/m 0,0 km/h (0 Bft) 98,11 %
22.01.2020 03:54 -2,3 C -2,8 C -2,8 C 98 % 1038,3 hPa 0,0 l/m 0 min 0 min 0 W/m 0,0 km/h (0 Bft) 97,83 %
22.01.2020 03:56 -2,3 C -2,8 C -2,8 C 98 % 1038,3 hPa 0,0 l/m 0 min 0 min 0 W/m 0,0 km/h (0 Bft) 94,00 %
22.01.2020 03:58 -2,2 C -2,8 C -2,8 C 98 % 1038,2 hPa 0,0 l/m 0 min 0 min 0 W/m 0,0 km/h (0 Bft) 95,74 %
22.01.2020 04:00 -2,2 C -2,8 C -2,8 C 98 % 1038,2 hPa 0,0 l/m 0 min 0 min 0 W/m 0,0 km/h (0 Bft) 97,87 %
22.01.2020 04:02 -2,2 C -2,8 C -2,8 C 98 % 1038,2 hPa 0,0 l/m 0 min 0 min 0 W/m 0,0 km/h (0 Bft) 96,43 %
22.01.2020 04:04 -2,2 C -2,8 C -2,8 C 98 % 1038,2 hPa 0,0 l/m 0 min 0 min 0 W/m 0,0 km/h (0 Bft) 97,87 %
22.01.2020 04:06 -2,2 C -2,8 C -2,8 C 98 % 1038,2 hPa 0,0 l/m 0 min 0 min 0 W/m 0,0 km/h (0 Bft) 96,23 %
22.01.2020 04:08 -2,2 C -2,8 C -2,8 C 98 % 1038,3 hPa 0,0 l/m 0 min 0 min 0 W/m 0,0 km/h (0 Bft) 98,00 %
22.01.2020 04:10 -2,2 C -2,8 C -2,8 C 98 % 1038,4 hPa 0,0 l/m 0 min 0 min 0 W/m 0,0 km/h (0 Bft) 94,74 %
22.01.2020 04:12 -2,2 C -2,8 C -2,8 C 98 % 1038,5 hPa 0,0 l/m 0 min 0 min 0 W/m 0,0 km/h (0 Bft) 100,00 %
22.01.2020 04:14 -2,2 C -2,8 C -2,8 C 98 % 1038,5 hPa 0,0 l/m 0 min 0 min 0 W/m 0,0 km/h (0 Bft) 100,00 %
22.01.2020 04:16 -2,2 C -2,8 C -3,3 C 98 % 1038,4 hPa 0,0 l/m 0 min 0 min 0 W/m 0,0 km/h (0 Bft) 96,23 %
22.01.2020 04:18 -2,2 C -2,8 C -2,8 C 98 % 1038,4 hPa 0,0 l/m 0 min 0 min 0 W/m 0,0 km/h (0 Bft) 98,00 %
22.01.2020 04:20 -2,2 C -2,8 C -2,8 C 98 % 1038,5 hPa 0,0 l/m 0 min 0 min 0 W/m 0,0 km/h (0 Bft) 100,00 %
22.01.2020 04:22 -2,2 C -2,8 C -2,8 C 98 % 1038,4 hPa 0,0 l/m 0 min 0 min 0 W/m 0,0 km/h (0 Bft) 100,00 %
22.01.2020 04:24 -2,2 C -2,8 C -2,8 C 98 % 1038,4 hPa 0,0 l/m 0 min 0 min 0 W/m 0,0 km/h (0 Bft) 100,00 %
22.01.2020 04:26 -2,2 C -2,8 C -2,8 C 98 % 1038,3 hPa 0,0 l/m 0 min 0 min 0 W/m 0,0 km/h (0 Bft) 54,55 %
22.01.2020 04:28 -2,2 C -2,8 C -2,8 C 98 % 1038,2 hPa 0,0 l/m 0 min 0 min 0 W/m 0,0 km/h (0 Bft) 100,00 %
22.01.2020 04:30 -2,2 C -2,8 C -2,8 C 98 % 1038,3 hPa 0,0 l/m 0 min 0 min 0 W/m 0,0 km/h (0 Bft) 100,00 %
22.01.2020 04:32 -2,2 C -2,8 C -3,3 C 98 % 1038,3 hPa 0,0 l/m 0 min 0 min 0 W/m 0,0 km/h (0 Bft) 100,00 %
22.01.2020 04:34 -2,2 C -2,8 C -2,8 C 98 % 1038,4 hPa 0,0 l/m 0 min 0 min 0 W/m 0,0 km/h (0 Bft) 100,00 %
22.01.2020 04:36 -2,2 C -2,8 C -2,8 C 98 % 1038,4 hPa 0,0 l/m 0 min 0 min 0 W/m 0,0 km/h (0 Bft) 100,00 %
22.01.2020 04:38 -2,2 C -2,8 C -2,8 C 98 % 1038,4 hPa 0,0 l/m 0 min 0 min 0 W/m 0,0 km/h (0 Bft) 100,00 %
22.01.2020 04:40 -2,2 C -2,8 C -2,8 C 98 % 1038,3 hPa 0,0 l/m 0 min 0 min 0 W/m 0,0 km/h (0 Bft) 100,00 %
22.01.2020 04:42 -2,2 C -2,8 C -2,8 C 98 % 1038,3 hPa 0,0 l/m 0 min 0 min 0 W/m 0,0 km/h (0 Bft) 100,00 %
22.01.2020 04:44 -2,2 C -2,8 C -2,8 C 98 % 1038,3 hPa 0,0 l/m 0 min 0 min 0 W/m 0,0 km/h (0 Bft) 100,00 %
22.01.2020 04:46 -2,2 C -2,8 C -2,8 C 98 % 1038,2 hPa 0,0 l/m 0 min 0 min 0 W/m 0,0 km/h (0 Bft) 100,00 %
22.01.2020 04:48 -2,2 C -2,8 C -2,8 C 98 % 1038,2 hPa 0,0 l/m 0 min 0 min 0 W/m 0,0 km/h (0 Bft) 100,00 %
22.01.2020 04:50 -2,2 C -2,8 C -2,8 C 98 % 1038,2 hPa 0,0 l/m 0 min 0 min 0 W/m 0,0 km/h (0 Bft) 100,00 %
22.01.2020 04:52 -2,2 C -2,8 C -2,8 C 98 % 1038,2 hPa 0,0 l/m 0 min 0 min 0 W/m 0,0 km/h (0 Bft) 100,00 %
22.01.2020 04:54 -2,2 C -2,8 C -2,8 C 98 % 1038,2 hPa 0,0 l/m 0 min 0 min 0 W/m 0,0 km/h (0 Bft) 100,00 %
22.01.2020 04:56 -2,2 C -2,8 C -2,8 C 98 % 1038,2 hPa 0,0 l/m 0 min 0 min 0 W/m 0,0 km/h (0 Bft) 100,00 %
22.01.2020 04:58 -2,2 C -2,8 C -2,8 C 98 % 1038,3 hPa 0,0 l/m 0 min 0 min 0 W/m 0,0 km/h (0 Bft) 100,00 %
22.01.2020 05:00 -2,2 C -2,8 C -2,8 C 98 % 1038,3 hPa 0,0 l/m 0 min 0 min 0 W/m 0,0 km/h (0 Bft) 100,00 %
22.01.2020 05:02 -2,2 C -2,8 C -2,8 C 98 % 1038,3 hPa 0,0 l/m 0 min 0 min 0 W/m 0,0 km/h (0 Bft) 97,87 %
22.01.2020 05:04 -2,2 C -2,8 C -2,8 C 98 % 1038,3 hPa 0,0 l/m 0 min 0 min 0 W/m 0,0 km/h (0 Bft) 97,96 %
22.01.2020 05:06 -2,2 C -2,8 C -2,8 C 98 % 1038,2 hPa 0,0 l/m 0 min 0 min 0 W/m 0,0 km/h (0 Bft) 97,37 %
22.01.2020 05:08 -2,2 C -2,8 C -2,8 C 98 % 1038,2 hPa 0,0 l/m 0 min 0 min 0 W/m 0,0 km/h (0 Bft) 97,87 %
22.01.2020 05:10 -2,2 C -2,8 C -2,8 C 98 % 1038,1 hPa 0,0 l/m 0 min 0 min 0 W/m 0,0 km/h (0 Bft) 95,74 %
22.01.2020 05:12 -2,2 C -2,8 C -2,8 C 98 % 1038,1 hPa 0,0 l/m 0 min 0 min 0 W/m 0,0 km/h (0 Bft) 98,11 %
22.01.2020 05:14 -2,2 C -2,8 C -2,8 C 98 % 1038,1 hPa 0,0 l/m 0 min 0 min 0 W/m 0,0 km/h (0 Bft) 97,83 %
22.01.2020 05:16 -2,2 C -2,8 C -2,8 C 98 % 1038,1 hPa 0,0 l/m 0 min 0 min 0 W/m 0,0 km/h (0 Bft) 98,00 %
22.01.2020 05:18 -2,2 C -2,8 C -2,8 C 98 % 1038,0 hPa 0,0 l/m 0 min 0 min 0 W/m 0,0 km/h (0 Bft) 97,87 %
22.01.2020 05:20 -2,2 C -2,8 C -2,8 C 98 % 1038,1 hPa 0,0 l/m 0 min 0 min 0 W/m 0,0 km/h (0 Bft) 97,37 %
22.01.2020 05:22 -2,2 C -2,8 C -2,8 C 98 % 1038,1 hPa 0,0 l/m 0 min 0 min 0 W/m 0,0 km/h (0 Bft) 97,87 %
22.01.2020 05:24 -2,2 C -2,8 C -2,8 C 98 % 1038,1 hPa 0,0 l/m 0 min 0 min 0 W/m 0,0 km/h (0 Bft) 97,83 %
22.01.2020 05:26 -2,2 C -2,8 C -2,8 C 98 % 1038,0 hPa 0,0 l/m 0 min 0 min 0 W/m 0,0 km/h (0 Bft) 96,23 %
22.01.2020 05:28 -2,2 C -2,8 C -2,8 C 98 % 1038,0 hPa 0,0 l/m 0 min 0 min 0 W/m 0,0 km/h (0 Bft) 96,00 %
22.01.2020 05:30 -2,2 C -2,8 C -2,8 C 98 % 1038,0 hPa 0,0 l/m 0 min 0 min 0 W/m 0,0 km/h (0 Bft) 94,74 %
22.01.2020 05:32 -2,2 C -2,8 C -2,8 C 98 % 1038,0 hPa 0,0 l/m 0 min 0 min 0 W/m 0,0 km/h (0 Bft) 95,74 %
22.01.2020 05:34 -2,2 C -2,8 C -2,8 C 98 % 1038,0 hPa 0,0 l/m 0 min 0 min 0 W/m 0,0 km/h (0 Bft) 93,62 %
22.01.2020 05:36 -2,2 C -2,8 C -2,8 C 98 % 1037,9 hPa 0,0 l/m 0 min 0 min 0 W/m 0,0 km/h (0 Bft) 96,23 %
22.01.2020 05:38 -2,2 C -2,8 C -2,8 C 98 % 1037,9 hPa 0,0 l/m 0 min 0 min 0 W/m 0,0 km/h (0 Bft) 95,65 %
22.01.2020 05:40 -2,2 C -2,8 C -2,8 C 98 % 1037,9 hPa 0,0 l/m 0 min 0 min 0 W/m 0,0 km/h (0 Bft) 91,49 %
22.01.2020 05:42 -2,2 C -2,8 C -2,8 C 98 % 1037,8 hPa 0,0 l/m 0 min 0 min 0 W/m 0,0 km/h (0 Bft) 95,74 %
22.01.2020 05:44 -2,2 C -2,8 C -2,8 C 98 % 1037,7 hPa 0,0 l/m 0 min 0 min 0 W/m 0,0 km/h (0 Bft) 96,00 %
22.01.2020 05:46 -2,2 C -2,8 C -2,8 C 98 % 1037,6 hPa 0,0 l/m 0 min 0 min 0 W/m 0,0 km/h (0 Bft) 95,74 %
22.01.2020 05:48 -2,2 C -2,8 C -2,8 C 98 % 1037,6 hPa 0,0 l/m 0 min 0 min 0 W/m 0,0 km/h (0 Bft) 91,49 %
22.01.2020 05:50 -2,2 C -2,8 C -2,8 C 98 % 1037,5 hPa 0,0 l/m 0 min 0 min 0 W/m 0,0 km/h (0 Bft) 97,30 %
22.01.2020 05:52 -2,2 C -2,8 C -2,8 C 98 % 1037,5 hPa 0,0 l/m 0 min 0 min 0 W/m 0,0 km/h (0 Bft) 93,62 %
22.01.2020 05:54 -2,2 C -2,8 C -2,8 C 98 % 1037,4 hPa 0,0 l/m 0 min 0 min 0 W/m 0,0 km/h (0 Bft) 94,34 %
22.01.2020 05:56 -2,2 C -2,8 C -2,8 C 98 % 1037,4 hPa 0,0 l/m 0 min 0 min 0 W/m 0,0 km/h (0 Bft) 96,00 %
22.01.2020 05:58 -2,2 C -2,8 C -2,8 C 98 % 1037,3 hPa 0,0 l/m 0 min 0 min 0 W/m 0,0 km/h (0 Bft) 91,89 %
22.01.2020 06:00 -2,2 C -2,8 C -2,8 C 98 % 1037,3 hPa 0,0 l/m 0 min 0 min 0 W/m 3,2 km/h (1 Bft) 95,74 %
22.01.2020 06:02 -2,2 C -2,8 C -2,8 C 98 % 1037,3 hPa 0,0 l/m 0 min 0 min 0 W/m 3,2 km/h (1 Bft) 92,45 %
22.01.2020 06:04 -2,2 C -2,8 C -2,8 C 98 % 1037,1 hPa 0,0 l/m 0 min 0 min 0 W/m 3,2 km/h (1 Bft) 92,00 %
22.01.2020 06:06 -2,2 C -2,8 C -2,8 C 98 % 1037,1 hPa 0,0 l/m 0 min 0 min 0 W/m 0,0 km/h (0 Bft) 94,74 %
22.01.2020 06:08 -2,2 C -2,8 C -2,8 C 98 % 1037,2 hPa 0,0 l/m 0 min 0 min 0 W/m 0,0 km/h (0 Bft) 95,74 %
22.01.2020 06:10 -2,2 C -2,8 C -2,8 C 98 % 1037,4 hPa 0,0 l/m 0 min 0 min 0 W/m 0,0 km/h (0 Bft) 94,34 %
22.01.2020 06:12 -2,2 C -2,8 C -2,8 C 98 % 1037,4 hPa 0,0 l/m 0 min 0 min 0 W/m 0,0 km/h (0 Bft) 95,92 %
22.01.2020 06:14 -2,2 C -2,8 C -2,8 C 98 % 1037,5 hPa 0,0 l/m 0 min 0 min 0 W/m 0,0 km/h (0 Bft) 100,00 %
22.01.2020 06:16 -2,2 C -2,8 C -2,8 C 98 % 1037,5 hPa 0,0 l/m 0 min 0 min 0 W/m 0,0 km/h (0 Bft) 95,74 %
22.01.2020 06:18 -2,2 C -2,8 C -2,8 C 98 % 1037,5 hPa 0,0 l/m 0 min 0 min 0 W/m 0,0 km/h (0 Bft) 98,11 %
22.01.2020 06:20 -2,2 C -2,8 C -2,8 C 98 % 1037,4 hPa 0,0 l/m 0 min 0 min 0 W/m 0,0 km/h (0 Bft) 98,00 %
22.01.2020 06:22 -2,2 C -2,8 C -2,8 C 98 % 1037,4 hPa 0,0 l/m 0 min 0 min 0 W/m 0,0 km/h (0 Bft) 94,59 %
22.01.2020 06:24 -2,2 C -2,8 C -2,8 C 98 % 1037,4 hPa 0,0 l/m 0 min 0 min 0 W/m 0,0 km/h (0 Bft) 95,74 %
22.01.2020 06:26 -2,2 C -2,8 C -2,8 C 98 % 1037,3 hPa 0,0 l/m 0 min 0 min 0 W/m 0,0 km/h (0 Bft) 98,11 %
22.01.2020 06:28 -2,1 C -2,8 C -2,8 C 98 % 1037,4 hPa 0,0 l/m 0 min 0 min 0 W/m 0,0 km/h (0 Bft) 96,00 %
22.01.2020 06:30 -2,1 C -2,8 C -2,8 C 98 % 1037,4 hPa 0,0 l/m 0 min 0 min 0 W/m 0,0 km/h (0 Bft) 95,74 %
22.01.2020 06:32 -2,1 C -2,8 C -2,8 C 98 % 1037,4 hPa 0,0 l/m 0 min 0 min 0 W/m 0,0 km/h (0 Bft) 97,87 %
22.01.2020 06:34 -2,1 C -2,8 C -2,8 C 98 % 1037,4 hPa 0,0 l/m 0 min 0 min 0 W/m 0,0 km/h (0 Bft) 97,30 %
22.01.2020 06:36 -2,1 C -2,8 C -2,8 C 98 % 1037,4 hPa 0,0 l/m 0 min 0 min 0 W/m 0,0 km/h (0 Bft) 97,87 %
22.01.2020 06:38 -2,1 C -2,8 C -2,8 C 98 % 1037,4 hPa 0,0 l/m 0 min 0 min 0 W/m 0,0 km/h (0 Bft) 97,87 %
22.01.2020 06:40 -2,1 C -2,8 C -2,8 C 98 % 1037,4 hPa 0,0 l/m 0 min 0 min 0 W/m 0,0 km/h (0 Bft) 100,00 %
22.01.2020 06:42 -2,1 C -2,8 C -2,8 C 98 % 1037,4 hPa 0,0 l/m 0 min 0 min 0 W/m 0,0 km/h (0 Bft) 100,00 %
22.01.2020 06:44 -2,1 C -2,8 C -2,8 C 98 % 1037,4 hPa 0,0 l/m 0 min 0 min 0 W/m 0,0 km/h (0 Bft) 100,00 %
22.01.2020 06:46 -2,2 C -2,8 C -2,8 C 98 % 1037,5 hPa 0,0 l/m 0 min 0 min 0 W/m 0,0 km/h (0 Bft) 100,00 %
22.01.2020 06:48 -2,1 C -2,8 C -2,8 C 98 % 1037,4 hPa 0,0 l/m 0 min 0 min 0 W/m 0,0 km/h (0 Bft) 100,00 %
22.01.2020 06:50 -2,1 C -2,8 C -2,8 C 98 % 1037,4 hPa 0,0 l/m 0 min 0 min 0 W/m 0,0 km/h (0 Bft) 97,87 %
22.01.2020 06:52 -2,1 C -2,8 C -2,8 C 98 % 1037,5 hPa 0,0 l/m 0 min 0 min 0 W/m 0,0 km/h (0 Bft) 97,87 %
22.01.2020 06:54 -2,1 C -2,8 C -2,8 C 98 % 1037,5 hPa 0,0 l/m 0 min 0 min 0 W/m 0,0 km/h (0 Bft) 100,00 %
22.01.2020 06:56 -2,1 C -2,8 C -2,8 C 98 % 1037,6 hPa 0,0 l/m 0 min 0 min 0 W/m 0,0 km/h (0 Bft) 100,00 %
22.01.2020 06:58 -2,1 C -2,8 C -2,8 C 98 % 1037,5 hPa 0,0 l/m 0 min 0 min 0 W/m 0,0 km/h (0 Bft) 100,00 %
22.01.2020 07:00 -2,1 C -2,8 C -2,8 C 98 % 1037,5 hPa 0,0 l/m 0 min 0 min 0 W/m 0,0 km/h (0 Bft) 100,00 %
22.01.2020 07:02 -2,1 C -2,8 C -2,8 C 98 % 1037,4 hPa 0,0 l/m 0 min 0 min 0 W/m 0,0 km/h (0 Bft) 100,00 %
22.01.2020 07:04 -2,1 C -2,8 C -2,8 C 98 % 1037,4 hPa 0,0 l/m 0 min 0 min 0 W/m 0,0 km/h (0 Bft) 100,00 %
22.01.2020 07:06 -2,1 C -2,8 C -2,8 C 98 % 1037,4 hPa 0,0 l/m 0 min 0 min 0 W/m 0,0 km/h (0 Bft) 100,00 %
22.01.2020 07:08 -2,1 C -2,8 C -2,8 C 98 % 1037,3 hPa 0,0 l/m 0 min 0 min 0 W/m 0,0 km/h (0 Bft) 100,00 %
22.01.2020 07:10 -2,1 C -2,8 C -2,8 C 98 % 1037,3 hPa 0,0 l/m 0 min 0 min 0 W/m 0,0 km/h (0 Bft) 100,00 %
22.01.2020 07:12 -2,1 C -2,8 C -2,8 C 98 % 1037,2 hPa 0,0 l/m 0 min 0 min 0 W/m 0,0 km/h (0 Bft) 100,00 %
22.01.2020 07:14 -2,1 C -2,8 C -2,8 C 98 % 1037,1 hPa 0,0 l/m 0 min 0 min 0 W/m 0,0 km/h (0 Bft) 100,00 %
22.01.2020 07:16 -2,1 C -2,8 C -2,8 C 98 % 1037,0 hPa 0,0 l/m 0 min 0 min 0 W/m 0,0 km/h (0 Bft) 100,00 %
22.01.2020 07:18 -2,1 C -2,8 C -2,8 C 98 % 1036,9 hPa 0,0 l/m 0 min 0 min 0 W/m 0,0 km/h (0 Bft) 100,00 %
22.01.2020 07:20 -2,1 C -2,8 C -2,8 C 98 % 1037,0 hPa 0,0 l/m 0 min 0 min 0 W/m 0,0 km/h (0 Bft) 100,00 %
22.01.2020 07:22 -2,1 C -2,8 C -2,8 C 98 % 1036,9 hPa 0,0 l/m 0 min 0 min 0 W/m 3,2 km/h (1 Bft) 100,00 %
22.01.2020 07:24 -2,1 C -2,8 C -2,8 C 98 % 1037,0 hPa 0,0 l/m 0 min 0 min 0 W/m 0,0 km/h (0 Bft) 100,00 %
22.01.2020 07:26 -2,1 C -2,8 C -2,8 C 98 % 1037,1 hPa 0,0 l/m 0 min 0 min 0 W/m 0,0 km/h (0 Bft) 97,87 %
22.01.2020 07:28 -2,1 C -2,8 C -2,8 C 98 % 1037,0 hPa 0,0 l/m 0 min 0 min 0 W/m 0,0 km/h (0 Bft) 100,00 %
22.01.2020 07:30 -2,1 C -2,8 C -2,8 C 98 % 1037,1 hPa 0,0 l/m 0 min 0 min 0 W/m 0,0 km/h (0 Bft) 100,00 %
22.01.2020 07:32 -2,1 C -2,8 C -2,8 C 98 % 1037,1 hPa 0,0 l/m 0 min 0 min 0 W/m 0,0 km/h (0 Bft) 100,00 %
22.01.2020 07:34 -2,1 C -2,8 C -2,8 C 98 % 1037,1 hPa 0,0 l/m 0 min 0 min 0 W/m 0,0 km/h (0 Bft) 100,00 %
22.01.2020 07:36 -2,1 C -2,8 C -2,8 C 98 % 1037,0 hPa 0,0 l/m 0 min 0 min 0 W/m 0,0 km/h (0 Bft) 100,00 %
22.01.2020 07:38 -2,0 C -2,8 C -2,8 C 98 % 1037,0 hPa 0,0 l/m 0 min 0 min 0 W/m 0,0 km/h (0 Bft) 100,00 %
22.01.2020 07:40 -2,0 C -2,2 C -2,8 C 98 % 1037,1 hPa 0,0 l/m 0 min 0 min 0 W/m 0,0 km/h (0 Bft) 97,87 %
22.01.2020 07:42 -2,0 C -2,2 C -2,8 C 98 % 1037,2 hPa 0,0 l/m 0 min 0 min 0 W/m 0,0 km/h (0 Bft) 100,00 %
22.01.2020 07:44 -2,0 C -2,2 C -2,8 C 98 % 1037,3 hPa 0,0 l/m 0 min 0 min 0 W/m 0,0 km/h (0 Bft) 97,96 %
22.01.2020 07:46 -2,0 C -2,2 C -2,8 C 98 % 1037,3 hPa 0,0 l/m 0 min 0 min 0 W/m 0,0 km/h (0 Bft) 100,00 %
22.01.2020 07:48 -2,0 C -2,2 C -2,8 C 98 % 1037,3 hPa 0,0 l/m 0 min 0 min 0 W/m 0,0 km/h (0 Bft) 95,74 %
22.01.2020 07:50 -2,0 C -2,2 C -2,8 C 98 % 1037,3 hPa 0,0 l/m 0 min 0 min 0 W/m 0,0 km/h (0 Bft) 100,00 %
22.01.2020 07:52 -2,0 C -2,2 C -2,8 C 98 % 1037,4 hPa 0,0 l/m 0 min 0 min 0 W/m 0,0 km/h (0 Bft) 98,11 %
22.01.2020 07:54 -2,0 C -2,2 C -2,8 C 98 % 1037,4 hPa 0,0 l/m 0 min 0 min 0 W/m 0,0 km/h (0 Bft) 100,00 %
22.01.2020 07:56 -2,0 C -2,2 C -2,8 C 98 % 1037,5 hPa 0,0 l/m 0 min 0 min 0 W/m 0,0 km/h (0 Bft) 97,30 %
22.01.2020 07:58 -2,0 C -2,2 C -2,8 C 98 % 1037,5 hPa 0,0 l/m 0 min 0 min 0 W/m 0,0 km/h (0 Bft) 100,00 %
22.01.2020 08:00 -2,0 C -2,2 C -2,8 C 98 % 1037,5 hPa 0,0 l/m 0 min 0 min 0 W/m 0,0 km/h (0 Bft) 97,87 %
22.01.2020 08:02 -1,9 C -2,2 C -2,8 C 98 % 1037,5 hPa 0,0 l/m 0 min 0 min 0 W/m 0,0 km/h (0 Bft) 98,11 %
22.01.2020 08:04 -2,0 C -2,2 C -2,8 C 98 % 1037,4 hPa 0,0 l/m 0 min 0 min 0 W/m 0,0 km/h (0 Bft) 100,00 %
22.01.2020 08:06 -1,9 C -2,2 C -2,8 C 98 % 1037,5 hPa 0,0 l/m 0 min 0 min 0 W/m 0,0 km/h (0 Bft) 95,74 %
22.01.2020 08:08 -1,9 C -2,2 C -2,8 C 98 % 1037,5 hPa 0,0 l/m 0 min 0 min 0 W/m 0,0 km/h (0 Bft) 93,48 %
22.01.2020 08:10 -1,9 C -2,2 C -2,8 C 98 % 1037,6 hPa 0,0 l/m 0 min 0 min 0 W/m 0,0 km/h (0 Bft) 95,74 %
22.01.2020 08:12 -1,9 C -2,2 C -2,8 C 98 % 1037,6 hPa 0,0 l/m 0 min 0 min 0 W/m 0,0 km/h (0 Bft) 97,37 %
22.01.2020 08:14 -1,9 C -2,2 C -2,8 C 98 % 1037,5 hPa 0,0 l/m 0 min 0 min 0 W/m 0,0 km/h (0 Bft) 97,87 %
22.01.2020 08:16 -1,9 C -2,2 C -2,8 C 98 % 1037,6 hPa 0,0 l/m 0 min 0 min 0 W/m 0,0 km/h (0 Bft) 95,74 %
22.01.2020 08:18 -1,9 C -2,2 C -2,8 C 98 % 1037,6 hPa 0,0 l/m 0 min 0 min 0 W/m 0,0 km/h (0 Bft) 98,11 %
22.01.2020 08:20 -1,9 C -2,2 C -2,8 C 98 % 1037,5 hPa 0,0 l/m 0 min 0 min 0 W/m 0,0 km/h (0 Bft) 95,92 %
22.01.2020 08:22 -1,9 C -2,2 C -2,8 C 98 % 1037,5 hPa 0,0 l/m 0 min 0 min 0 W/m 0,0 km/h (0 Bft) 97,87 %
22.01.2020 08:24 -1,9 C -2,2 C -2,8 C 98 % 1037,5 hPa 0,0 l/m 0 min 0 min 0 W/m 0,0 km/h (0 Bft) 93,62 %
22.01.2020 08:26 -1,9 C -2,2 C -2,8 C 98 % 1037,6 hPa 0,0 l/m 0 min 0 min 0 W/m 0,0 km/h (0 Bft) 95,74 %
22.01.2020 08:28 -1,9 C -2,2 C -2,8 C 98 % 1037,6 hPa 0,0 l/m 0 min 0 min 0 W/m 0,0 km/h (0 Bft) 93,62 %
22.01.2020 08:30 -1,9 C -2,2 C -2,8 C 98 % 1037,7 hPa 0,0 l/m 0 min 0 min 0 W/m 0,0 km/h (0 Bft) 91,89 %
22.01.2020 08:32 -1,9 C -2,2 C -2,8 C 98 % 1037,6 hPa 0,0 l/m 0 min 0 min 0 W/m 0,0 km/h (0 Bft) 95,74 %
22.01.2020 08:34 -1,9 C -2,2 C -2,8 C 98 % 1037,6 hPa 0,0 l/m 0 min 0 min 2 W/m 0,0 km/h (0 Bft) 96,23 %
22.01.2020 08:36 -1,8 C -2,2 C -2,8 C 98 % 1037,7 hPa 0,0 l/m 0 min 0 min 1 W/m 3,2 km/h (1 Bft) 95,74 %
22.01.2020 08:38 -1,8 C -2,2 C -2,8 C 98 % 1037,6 hPa 0,0 l/m 0 min 0 min 5 W/m 3,2 km/h (1 Bft) 95,74 %
22.01.2020 08:40 -1,8 C -2,2 C -2,8 C 98 % 1037,7 hPa 0,0 l/m 0 min 0 min 5 W/m 0,0 km/h (0 Bft) 95,74 %
22.01.2020 08:42 -1,8 C -2,2 C -2,8 C 99 % 1037,7 hPa 0,0 l/m 0 min 0 min 6 W/m 0,0 km/h (0 Bft) 93,88 %
22.01.2020 08:44 -1,8 C -2,2 C -2,8 C 99 % 1037,8 hPa 0,0 l/m 0 min 0 min 7 W/m 0,0 km/h (0 Bft) 93,62 %
22.01.2020 08:46 -1,7 C -2,2 C -2,8 C 99 % 1037,7 hPa 0,0 l/m 0 min 0 min 9 W/m 0,0 km/h (0 Bft) 97,30 %
22.01.2020 08:48 -1,7 C -2,2 C -2,8 C 99 % 1037,8 hPa 0,0 l/m 0 min 0 min 9 W/m 3,2 km/h (1 Bft) 93,62 %
22.01.2020 08:50 -1,7 C -2,2 C -2,8 C 99 % 1037,7 hPa 0,0 l/m 0 min 0 min 9 W/m 3,2 km/h (1 Bft) 93,62 %
22.01.2020 08:52 -1,7 C -2,2 C -2,8 C 99 % 1037,7 hPa 0,0 l/m 0 min 0 min 11 W/m 3,2 km/h (1 Bft) 94,34 %
22.01.2020 08:54 -1,7 C -2,2 C -2,2 C 99 % 1037,7 hPa 0,0 l/m 0 min 0 min 11 W/m 0,0 km/h (0 Bft) 97,96 %
22.01.2020 08:56 -1,7 C -2,2 C -2,2 C 99 % 1037,7 hPa 0,0 l/m 0 min 0 min 12 W/m 3,2 km/h (1 Bft) 92,11 %
22.01.2020 08:58 -1,7 C -2,2 C -2,2 C 99 % 1037,8 hPa 0,0 l/m 0 min 0 min 13 W/m 0,0 km/h (0 Bft) 95,74 %
22.01.2020 09:00 -1,7 C -2,2 C -2,2 C 99 % 1037,8 hPa 0,0 l/m 0 min 0 min 13 W/m 0,0 km/h (0 Bft) 95,74 %
22.01.2020 09:02 -1,7 C -2,2 C -2,2 C 99 % 1037,8 hPa 0,0 l/m 0 min 0 min 12 W/m 0,0 km/h (0 Bft) 94,34 %
22.01.2020 09:04 -1,7 C -2,2 C -2,2 C 99 % 1037,8 hPa 0,0 l/m 0 min 0 min 11 W/m 0,0 km/h (0 Bft) 93,62 %
22.01.2020 09:06 -1,7 C -2,2 C -2,2 C 99 % 1037,8 hPa 0,0 l/m 0 min 0 min 12 W/m 0,0 km/h (0 Bft) 53,33 %
22.01.2020 09:08 -1,7 C -2,2 C -2,2 C 99 % 1037,8 hPa 0,0 l/m 0 min 0 min 12 W/m 0,0 km/h (0 Bft) 93,62 %
22.01.2020 09:10 -1,7 C -2,2 C -2,2 C 99 % 1037,8 hPa 0,0 l/m 0 min 0 min 16 W/m 0,0 km/h (0 Bft) 97,87 %
22.01.2020 09:12 -1,6 C -2,2 C -2,2 C 99 % 1037,7 hPa 0,0 l/m 0 min 0 min 16 W/m 3,2 km/h (1 Bft) 94,00 %
22.01.2020 09:14 -1,6 C -2,2 C -2,2 C 99 % 1037,8 hPa 0,0 l/m 0 min 0 min 19 W/m 0,0 km/h (0 Bft) 97,37 %
22.01.2020 09:16 -1,6 C -2,2 C -2,2 C 99 % 1037,8 hPa 0,0 l/m 0 min 0 min 21 W/m 0,0 km/h (0 Bft) 95,65 %
22.01.2020 09:18 -1,6 C -2,2 C -2,2 C 99 % 1037,8 hPa 0,0 l/m 0 min 0 min 22 W/m 3,2 km/h (1 Bft) 97,87 %
22.01.2020 09:20 -1,6 C -2,2 C -2,2 C 99 % 1037,8 hPa 0,0 l/m 0 min 0 min 23 W/m 0,0 km/h (0 Bft) 97,87 %
22.01.2020 09:22 -1,6 C -2,2 C -2,2 C 99 % 1037,8 hPa 0,0 l/m 0 min 0 min 26 W/m 3,2 km/h (1 Bft) 97,87 %
22.01.2020 09:24 -1,6 C -2,2 C -2,2 C 99 % 1037,7 hPa 0,0 l/m 0 min 0 min 28 W/m 0,0 km/h (0 Bft) 98,11 %
22.01.2020 09:26 -1,6 C -1,7 C -2,2 C 99 % 1037,7 hPa 0,0 l/m 0 min 0 min 31 W/m 0,0 km/h (0 Bft) 100,00 %
22.01.2020 09:28 -1,6 C -1,7 C -2,2 C 99 % 1037,7 hPa 0,0 l/m 0 min 0 min 30 W/m 0,0 km/h (0 Bft) 97,87 %
22.01.2020 09:30 -1,6 C -1,7 C -2,2 C 99 % 1037,7 hPa 0,0 l/m 0 min 0 min 33 W/m 0,0 km/h (0 Bft) 97,96 %
22.01.2020 09:32 -1,6 C -1,7 C -2,2 C 99 % 1037,7 hPa 0,0 l/m 0 min 0 min 35 W/m 0,0 km/h (0 Bft) 97,37 %
22.01.2020 09:34 -1,6 C -1,7 C -2,2 C 99 % 1037,7 hPa 0,0 l/m 0 min 0 min 35 W/m 0,0 km/h (0 Bft) 95,74 %
22.01.2020 09:36 -1,5 C -2,2 C -2,2 C 99 % 1037,7 hPa 0,0 l/m 0 min 0 min 35 W/m 3,2 km/h (1 Bft) 97,87 %
22.01.2020 09:38 -1,5 C -1,7 C -2,2 C 99 % 1037,8 hPa 0,0 l/m 0 min 0 min 45 W/m 0,0 km/h (0 Bft) 98,11 %
22.01.2020 09:40 -1,5 C -1,7 C -2,2 C 99 % 1037,8 hPa 0,0 l/m 0 min 0 min 47 W/m 0,0 km/h (0 Bft) 97,83 %
22.01.2020 09:42 -1,5 C -1,7 C -2,2 C 99 % 1037,8 hPa 0,0 l/m 0 min 0 min 49 W/m 0,0 km/h (0 Bft) 98,00 %
22.01.2020 09:44 -1,4 C -1,7 C -2,2 C 99 % 1037,8 hPa 0,0 l/m 0 min 0 min 49 W/m 0,0 km/h (0 Bft) 97,87 %
22.01.2020 09:46 -1,4 C -1,7 C -2,2 C 99 % 1037,8 hPa 0,0 l/m 0 min 0 min 36 W/m 0,0 km/h (0 Bft) 97,87 %
22.01.2020 09:48 -1,4 C -1,7 C -1,7 C 99 % 1037,8 hPa 0,0 l/m 0 min 0 min 37 W/m 0,0 km/h (0 Bft) 100,00 %
22.01.2020 09:50 -1,4 C -1,7 C -1,7 C 99 % 1037,9 hPa 0,0 l/m 0 min 0 min 40 W/m 0,0 km/h (0 Bft) 100,00 %
22.01.2020 09:52 -1,4 C -1,7 C -2,2 C 99 % 1037,9 hPa 0,0 l/m 0 min 0 min 44 W/m 0,0 km/h (0 Bft) 100,00 %
22.01.2020 09:54 -1,4 C -1,7 C -2,2 C 99 % 1037,9 hPa 0,0 l/m 0 min 0 min 46 W/m 0,0 km/h (0 Bft) 100,00 %
22.01.2020 09:56 -1,4 C -1,7 C -1,7 C 99 % 1038,0 hPa 0,0 l/m 0 min 0 min 48 W/m 0,0 km/h (0 Bft) 97,87 %
22.01.2020 09:58 -1,4 C -1,7 C -1,7 C 99 % 1037,9 hPa 0,0 l/m 0 min 0 min 49 W/m 3,2 km/h (1 Bft) 100,00 %
22.01.2020 10:00 -1,3 C -1,7 C -1,7 C 99 % 1038,0 hPa 0,0 l/m 0 min 0 min 49 W/m 0,0 km/h (0 Bft) 97,87 %
22.01.2020 10:02 -1,3 C -1,7 C -1,7 C 99 % 1038,0 hPa 0,0 l/m 0 min 0 min 52 W/m 0,0 km/h (0 Bft) 100,00 %
22.01.2020 10:04 -1,3 C -1,7 C -1,7 C 99 % 1038,0 hPa 0,0 l/m 0 min 0 min 54 W/m 0,0 km/h (0 Bft) 100,00 %
22.01.2020 10:06 -1,3 C -1,7 C -1,7 C 99 % 1038,0 hPa 0,0 l/m 0 min 0 min 53 W/m 0,0 km/h (0 Bft) 96,00 %
22.01.2020 10:08 -1,3 C -1,7 C -1,7 C 99 % 1037,9 hPa 0,0 l/m 0 min 0 min 54 W/m 0,0 km/h (0 Bft) 100,00 %
22.01.2020 10:10 -1,3 C -1,7 C -1,7 C 99 % 1037,9 hPa 0,0 l/m 0 min 0 min 57 W/m 0,0 km/h (0 Bft) 95,74 %
22.01.2020 10:12 -1,3 C -1,7 C -1,7 C 99 % 1038,0 hPa 0,0 l/m 0 min 0 min 56 W/m 0,0 km/h (0 Bft) 94,74 %
22.01.2020 10:14 -1,3 C -1,7 C -1,7 C 99 % 1037,9 hPa 0,0 l/m 0 min 0 min 58 W/m 0,0 km/h (0 Bft) 100,00 %
22.01.2020 10:16 -1,3 C -1,7 C -1,7 C 99 % 1037,9 hPa 0,0 l/m 0 min 0 min 65 W/m 0,0 km/h (0 Bft) 100,00 %
22.01.2020 10:18 -1,2 C -1,7 C -1,7 C 99 % 1037,9 hPa 0,0 l/m 0 min 0 min 70 W/m 0,0 km/h (0 Bft) 100,00 %
22.01.2020 10:20 -1,2 C -1,7 C -1,7 C 99 % 1037,9 hPa 0,0 l/m 0 min 0 min 71 W/m 0,0 km/h (0 Bft) 100,00 %
22.01.2020 10:22 -1,2 C -1,1 C -1,7 C 99 % 1037,9 hPa 0,0 l/m 0 min 0 min 80 W/m 0,0 km/h (0 Bft) 98,00 %
22.01.2020 10:24 -1,2 C -1,1 C -1,7 C 99 % 1037,9 hPa 0,0 l/m 0 min 0 min 80 W/m 0,0 km/h (0 Bft) 100,00 %
22.01.2020 10:26 -1,2 C -1,1 C -1,7 C 99 % 1037,9 hPa 0,0 l/m 0 min 0 min 64 W/m 0,0 km/h (0 Bft) 100,00 %
22.01.2020 10:28 -1,2 C -1,1 C -1,7 C 99 % 1037,9 hPa 0,0 l/m 0 min 0 min 69 W/m 3,2 km/h (1 Bft) 100,00 %
22.01.2020 10:30 -1,2 C -1,1 C -1,7 C 99 % 1037,9 hPa 0,0 l/m 0 min 0 min 77 W/m 3,2 km/h (1 Bft) 100,00 %
22.01.2020 10:32 -1,1 C -1,1 C -1,7 C 99 % 1038,0 hPa 0,0 l/m 0 min 0 min 85 W/m 3,2 km/h (1 Bft) 100,00 %
22.01.2020 10:34 -1,1 C -1,1 C -1,7 C 99 % 1038,0 hPa 0,0 l/m 0 min 0 min 63 W/m 0,0 km/h (0 Bft) 100,00 %
22.01.2020 10:36 -1,1 C -1,1 C -1,7 C 99 % 1038,1 hPa 0,0 l/m 0 min 0 min 62 W/m 0,0 km/h (0 Bft) 100,00 %
22.01.2020 10:38 -1,1 C -1,1 C -1,7 C 99 % 1038,2 hPa 0,0 l/m 0 min 0 min 47 W/m 0,0 km/h (0 Bft) 100,00 %
22.01.2020 10:40 -1,1 C -1,1 C -1,7 C 99 % 1038,2 hPa 0,0 l/m 0 min 0 min 43 W/m 0,0 km/h (0 Bft) 100,00 %
22.01.2020 10:42 -1,1 C -1,1 C -1,7 C 99 % 1038,1 hPa 0,0 l/m 0 min 0 min 47 W/m 0,0 km/h (0 Bft) 100,00 %
22.01.2020 10:44 -1,1 C -1,1 C -1,7 C 99 % 1038,1 hPa 0,0 l/m 0 min 0 min 54 W/m 0,0 km/h (0 Bft) 95,74 %
22.01.2020 10:46 -1,1 C -1,1 C -1,7 C 99 % 1038,1 hPa 0,0 l/m 0 min 0 min 58 W/m 0,0 km/h (0 Bft) 95,74 %
22.01.2020 10:48 -1,0 C -1,1 C -1,7 C 99 % 1038,1 hPa 0,0 l/m 0 min 0 min 56 W/m 0,0 km/h (0 Bft) 98,11 %
22.01.2020 10:50 -1,0 C -1,1 C -1,7 C 99 % 1038,1 hPa 0,0 l/m 0 min 0 min 53 W/m 0,0 km/h (0 Bft) 97,96 %
22.01.2020 10:52 -1,0 C -1,1 C -1,7 C 99 % 1038,1 hPa 0,0 l/m 0 min 0 min 58 W/m 0,0 km/h (0 Bft) 92,11 %
22.01.2020 10:54 -1,0 C -1,1 C -1,7 C 99 % 1038,1 hPa 0,0 l/m 0 min 0 min 66 W/m 0,0 km/h (0 Bft) 95,74 %
22.01.2020 10:56 -1,0 C -1,1 C -1,1 C 99 % 1038,0 hPa 0,0 l/m 0 min 0 min 73 W/m 0,0 km/h (0 Bft) 94,34 %
22.01.2020 10:58 -1,0 C -1,1 C -1,1 C 99 % 1038,0 hPa 0,0 l/m 0 min 0 min 76 W/m 3,2 km/h (1 Bft) 94,00 %
22.01.2020 11:00 -0,9 C -1,1 C -1,1 C 99 % 1038,0 hPa 0,0 l/m 0 min 0 min 80 W/m 0,0 km/h (0 Bft) 94,59 %
22.01.2020 11:02 -0,9 C -1,1 C -1,1 C 99 % 1038,0 hPa 0,0 l/m 0 min 0 min 95 W/m 0,0 km/h (0 Bft) 95,74 %
22.01.2020 11:04 -0,9 C -0,6 C -1,1 C 99 % 1038,1 hPa 0,0 l/m 0 min 0 min 90 W/m 0,0 km/h (0 Bft) 92,00 %
22.01.2020 11:06 -0,9 C -0,6 C -1,1 C 99 % 1038,1 hPa 0,0 l/m 0 min 0 min 81 W/m 0,0 km/h (0 Bft) 95,74 %
22.01.2020 11:08 -0,9 C -0,6 C -1,1 C 99 % 1038,0 hPa 0,0 l/m 0 min 0 min 78 W/m 0,0 km/h (0 Bft) 95,92 %
22.01.2020 11:10 -0,9 C -1,1 C -1,1 C 99 % 1038,1 hPa 0,0 l/m 0 min 0 min 79 W/m 0,0 km/h (0 Bft) 95,65 %
22.01.2020 11:12 -0,9 C -0,6 C -1,1 C 99 % 1038,1 hPa 0,0 l/m 0 min 0 min 76 W/m 0,0 km/h (0 Bft) 95,74 %
22.01.2020 11:14 -0,9 C -0,6 C -1,1 C 99 % 1038,1 hPa 0,0 l/m 0 min 0 min 74 W/m 0,0 km/h (0 Bft) 93,62 %
22.01.2020 11:16 -0,9 C -0,6 C -1,1 C 99 % 1038,2 hPa 0,0 l/m 0 min 0 min 70 W/m 0,0 km/h (0 Bft) 92,86 %
22.01.2020 11:18 -0,8 C -0,6 C -1,1 C 99 % 1038,2 hPa 0,0 l/m 0 min 0 min 70 W/m 0,0 km/h (0 Bft) 96,00 %
22.01.2020 11:20 -0,8 C -0,6 C -0,6 C 99 % 1038,1 hPa 0,0 l/m 0 min 0 min 75 W/m 0,0 km/h (0 Bft) 93,88 %
22.01.2020 11:22 -0,8 C -0,6 C -0,6 C 99 % 1038,1 hPa 0,0 l/m 0 min 0 min 72 W/m 0,0 km/h (0 Bft) 95,65 %
22.01.2020 11:24 -0,8 C -0,6 C -0,6 C 99 % 1038,1 hPa 0,0 l/m 0 min 0 min 72 W/m 0,0 km/h (0 Bft) 95,35 %
22.01.2020 11:26 -0,8 C -0,6 C -0,6 C 99 % 1038,1 hPa 0,0 l/m 0 min 0 min 89 W/m 0,0 km/h (0 Bft) 97,96 %
22.01.2020 11:28 -0,7 C -0,6 C -0,6 C 99 % 1038,1 hPa 0,0 l/m 0 min 0 min 99 W/m 3,2 km/h (1 Bft) 91,84 %
22.01.2020 11:30 -0,7 C -0,6 C -0,6 C 99 % 1038,1 hPa 0,0 l/m 0 min 0 min 93 W/m 0,0 km/h (0 Bft) 97,87 %
22.01.2020 11:32 -0,7 C -0,6 C -0,6 C 99 % 1038,1 hPa 0,0 l/m 0 min 0 min 81 W/m 6,4 km/h (2 Bft) 92,86 %
22.01.2020 11:34 -0,7 C -0,6 C -0,6 C 99 % 1038,1 hPa 0,0 l/m 0 min 0 min 69 W/m 0,0 km/h (0 Bft) 95,74 %
22.01.2020 11:36 -0,7 C -0,6 C -0,6 C 99 % 1038,1 hPa 0,0 l/m 0 min 0 min 70 W/m 3,2 km/h (1 Bft) 100,00 %
22.01.2020 11:38 -0,7 C -0,6 C -0,6 C 99 % 1038,0 hPa 0,0 l/m 0 min 0 min 75 W/m 0,0 km/h (0 Bft) 100,00 %
22.01.2020 11:40 -0,6 C -0,6 C -0,6 C 99 % 1038,1 hPa 0,0 l/m 0 min 0 min 78 W/m 0,0 km/h (0 Bft) 100,00 %
22.01.2020 11:42 -0,6 C 0,0 C -0,6 C 99 % 1038,1 hPa 0,0 l/m 0 min 0 min 76 W/m 0,0 km/h (0 Bft) 97,87 %
22.01.2020 11:44 -0,6 C 0,0 C -0,6 C 99 % 1038,0 hPa 0,0 l/m 0 min 0 min 65 W/m 0,0 km/h (0 Bft) 100,00 %
22.01.2020 11:46 -0,6 C -0,6 C -0,6 C 99 % 1038,1 hPa 0,0 l/m 0 min 0 min 55 W/m 0,0 km/h (0 Bft) 100,00 %
22.01.2020 11:48 -0,6 C -0,6 C -0,6 C 99 % 1038,0 hPa 0,0 l/m 0 min 0 min 61 W/m 0,0 km/h (0 Bft) 100,00 %
22.01.2020 11:50 -0,6 C -0,6 C -0,6 C 99 % 1038,1 hPa 0,0 l/m 0 min 0 min 70 W/m 0,0 km/h (0 Bft) 100,00 %
22.01.2020 11:52 -0,5 C 0,0 C -0,6 C 99 % 1038,0 hPa 0,0 l/m 0 min 0 min 81 W/m 0,0 km/h (0 Bft) 100,00 %
22.01.2020 11:54 -0,5 C 0,0 C -0,6 C 99 % 1038,0 hPa 0,0 l/m 0 min 0 min 92 W/m 0,0 km/h (0 Bft) 100,00 %
22.01.2020 11:56 -0,5 C 0,0 C -0,6 C 99 % 1038,0 hPa 0,0 l/m 0 min 0 min 103 W/m 0,0 km/h (0 Bft) 100,00 %
22.01.2020 11:58 -0,4 C 0,0 C -0,6 C 99 % 1037,9 hPa 0,0 l/m 0 min 0 min 100 W/m 0,0 km/h (0 Bft) 100,00 %
22.01.2020 12:00 -0,4 C 0,0 C -0,6 C 99 % 1037,9 hPa 0,0 l/m 0 min 0 min 98 W/m 0,0 km/h (0 Bft) 95,92 %
22.01.2020 12:02 -0,4 C 0,0 C -0,6 C 99 % 1038,0 hPa 0,0 l/m 0 min 0 min 101 W/m 0,0 km/h (0 Bft) 97,96 %
22.01.2020 12:04 -0,3 C 0,0 C -0,6 C 99 % 1037,9 hPa 0,0 l/m 0 min 0 min 106 W/m 3,2 km/h (1 Bft) 100,00 %
22.01.2020 12:08 -0,3 C 0,0 C -0,6 C 99 % 1037,9 hPa 0,0 l/m 0 min 0 min 100 W/m 0,0 km/h (0 Bft) 97,85 %
22.01.2020 12:10 -0,2 C 0,0 C -0,6 C 99 % 1037,8 hPa 0,0 l/m 0 min 0 min 97 W/m 0,0 km/h (0 Bft) 100,00 %
22.01.2020 12:12 -0,2 C 0,0 C 0,0 C 99 % 1037,8 hPa 0,0 l/m 0 min 0 min 96 W/m 0,0 km/h (0 Bft) 97,22 %
22.01.2020 12:14 -0,2 C 0,0 C 0,0 C 99 % 1037,7 hPa 0,0 l/m 0 min 0 min 97 W/m 0,0 km/h (0 Bft) 98,08 %
22.01.2020 12:16 -0,2 C 0,0 C -0,6 C 99 % 1037,7 hPa 0,0 l/m 0 min 0 min 94 W/m 0,0 km/h (0 Bft) 96,23 %
22.01.2020 12:18 -0,1 C 0,0 C -0,6 C 99 % 1037,7 hPa 0,0 l/m 0 min 0 min 91 W/m 0,0 km/h (0 Bft) 97,14 %
22.01.2020 12:20 -0,1 C 0,0 C -0,6 C 99 % 1037,7 hPa 0,0 l/m 0 min 0 min 83 W/m 0,0 km/h (0 Bft) 98,31 %
22.01.2020 12:22 -0,1 C 0,0 C -0,6 C 99 % 1037,7 hPa 0,0 l/m 0 min 0 min 78 W/m 0,0 km/h (0 Bft) 97,14 %
22.01.2020 12:24 -0,1 C 0,0 C -0,6 C 99 % 1037,6 hPa 0,0 l/m 0 min 0 min 64 W/m 0,0 km/h (0 Bft) 93,62 %
22.01.2020 12:26 -0,1 C 0,0 C -0,6 C 99 % 1037,6 hPa 0,0 l/m 0 min 0 min 60 W/m 0,0 km/h (0 Bft) 98,28 %
22.01.2020 12:28 0,0 C 0,0 C -0,6 C 99 % 1037,5 hPa 0,0 l/m 0 min 0 min 60 W/m 3,2 km/h (1 Bft) 97,14 %
22.01.2020 12:30 0,0 C 0,0 C -0,6 C 99 % 1037,5 hPa 0,0 l/m 0 min 0 min 66 W/m 3,2 km/h (1 Bft) 98,31 %
22.01.2020 12:32 0,1 C 0,0 C -0,6 C 99 % 1037,5 hPa 0,0 l/m 0 min 0 min 75 W/m 3,2 km/h (1 Bft) 91,49 %
22.01.2020 12:34 0,1 C 0,0 C -0,6 C 99 % 1037,5 hPa 0,0 l/m 0 min 0 min 82 W/m 0,0 km/h (0 Bft) 100,00 %
22.01.2020 12:36 0,1 C 0,0 C -0,6 C 99 % 1037,5 hPa 0,0 l/m 0 min 0 min 84 W/m 0,0 km/h (0 Bft) 97,87 %
22.01.2020 12:38 0,1 C 0,0 C 0,0 C 99 % 1037,5 hPa 0,0 l/m 0 min 0 min 87 W/m 0,0 km/h (0 Bft) 95,74 %
22.01.2020 12:40 0,2 C 0,0 C 0,0 C 99 % 1037,4 hPa 0,0 l/m 0 min 0 min 90 W/m 0,0 km/h (0 Bft) 96,00 %
22.01.2020 12:42 0,2 C 0,6 C 0,0 C 99 % 1037,5 hPa 0,0 l/m 0 min 0 min 86 W/m 0,0 km/h (0 Bft) 97,92 %
22.01.2020 12:44 0,2 C 0,6 C 0,0 C 99 % 1037,4 hPa 0,0 l/m 0 min 0 min 81 W/m 0,0 km/h (0 Bft) 97,87 %
22.01.2020 12:46 0,2 C 0,0 C 0,0 C 99 % 1037,4 hPa 0,0 l/m 0 min 0 min 78 W/m 0,0 km/h (0 Bft) 97,67 %
22.01.2020 12:48 0,3 C 0,0 C 0,0 C 99 % 1037,3 hPa 0,0 l/m 0 min 0 min 74 W/m 3,2 km/h (1 Bft) 97,83 %
22.01.2020 12:50 0,3 C 0,0 C 0,0 C 99 % 1037,3 hPa 0,0 l/m 0 min 0 min 69 W/m 0,0 km/h (0 Bft) 97,87 %
22.01.2020 12:52 0,3 C 0,0 C 0,0 C 99 % 1037,3 hPa 0,0 l/m 0 min 0 min 68 W/m 0,0 km/h (0 Bft) 98,00 %
22.01.2020 12:54 0,3 C 0,0 C 0,0 C 99 % 1037,3 hPa 0,0 l/m 0 min 0 min 71 W/m 0,0 km/h (0 Bft) 97,96 %
22.01.2020 12:56 0,3 C 0,0 C 0,0 C 99 % 1037,3 hPa 0,0 l/m 0 min 0 min 69 W/m 0,0 km/h (0 Bft) 97,83 %
22.01.2020 12:58 0,3 C 0,0 C 0,0 C 99 % 1037,2 hPa 0,0 l/m 0 min 0 min 66 W/m 0,0 km/h (0 Bft) 97,87 %
22.01.2020 13:00 0,4 C 0,0 C 0,0 C 99 % 1037,3 hPa 0,0 l/m 0 min 0 min 61 W/m 0,0 km/h (0 Bft) 92,86 %
22.01.2020 13:02 0,4 C 0,0 C 0,0 C 99 % 1037,3 hPa 0,0 l/m 0 min 0 min 50 W/m 3,2 km/h (1 Bft) 96,00 %
22.01.2020 13:04 0,4 C 0,0 C 0,0 C 99 % 1037,3 hPa 0,0 l/m 0 min 0 min 48 W/m 0,0 km/h (0 Bft) 97,96 %
22.01.2020 13:06 0,4 C 0,0 C 0,0 C 99 % 1037,3 hPa 0,0 l/m 0 min 0 min 55 W/m 0,0 km/h (0 Bft) 95,65 %
22.01.2020 13:08 0,4 C 0,0 C 0,0 C 99 % 1037,2 hPa 0,0 l/m 0 min 0 min 76 W/m 0,0 km/h (0 Bft) 100,00 %
22.01.2020 13:10 0,5 C 0,0 C 0,0 C 99 % 1037,2 hPa 0,0 l/m 0 min 0 min 74 W/m 3,2 km/h (1 Bft) 97,87 %
22.01.2020 13:12 0,5 C 0,6 C 0,0 C 99 % 1037,1 hPa 0,0 l/m 0 min 0 min 79 W/m 0,0 km/h (0 Bft) 97,87 %
22.01.2020 13:14 0,5 C 0,6 C 0,0 C 99 % 1037,2 hPa 0,0 l/m 0 min 0 min 81 W/m 0,0 km/h (0 Bft) 100,00 %
22.01.2020 13:16 0,6 C 0,6 C 0,0 C 99 % 1037,2 hPa 0,0 l/m 0 min 0 min 80 W/m 0,0 km/h (0 Bft) 100,00 %
22.01.2020 13:18 0,6 C 0,6 C 0,0 C 99 % 1037,2 hPa 0,0 l/m 0 min 0 min 69 W/m 0,0 km/h (0 Bft) 97,87 %
22.01.2020 13:20 0,6 C 0,6 C 0,0 C 99 % 1037,2 hPa 0,0 l/m 0 min 0 min 57 W/m 0,0 km/h (0 Bft) 93,62 %
22.01.2020 13:22 0,6 C 0,6 C 0,0 C 99 % 1037,1 hPa 0,0 l/m 0 min 0 min 56 W/m 3,2 km/h (1 Bft) 97,83 %
22.01.2020 13:24 0,6 C 0,6 C 0,0 C 99 % 1037,2 hPa 0,0 l/m 0 min 0 min 48 W/m 0,0 km/h (0 Bft) 97,96 %
22.01.2020 13:26 0,6 C 0,6 C 0,0 C 99 % 1037,2 hPa 0,0 l/m 0 min 0 min 49 W/m 0,0 km/h (0 Bft) 97,87 %
22.01.2020 13:28 0,6 C 0,6 C 0,0 C 99 % 1037,2 hPa 0,0 l/m 0 min 0 min 53 W/m 0,0 km/h (0 Bft) 95,65 %
22.01.2020 13:30 0,6 C 0,6 C 0,0 C 99 % 1037,1 hPa 0,0 l/m 0 min 0 min 54 W/m 0,0 km/h (0 Bft) 93,75 %
22.01.2020 13:32 0,6 C 0,6 C 0,0 C 99 % 1037,2 hPa 0,0 l/m 0 min 0 min 54 W/m 0,0 km/h (0 Bft) 95,92 %
22.01.2020 13:34 0,6 C 0,6 C 0,0 C 99 % 1037,1 hPa 0,0 l/m 0 min 0 min 52 W/m 0,0 km/h (0 Bft) 95,12 %
22.01.2020 13:39 0,6 C 0,6 C 0,0 C 99 % 1037,1 hPa 0,0 l/m 0 min 0 min 53 W/m 0,0 km/h (0 Bft) 94,31 %
22.01.2020 13:47 0,7 C 0,6 C 0,0 C 99 % 1037,0 hPa 0,0 l/m 0 min 0 min 52 W/m 0,0 km/h (0 Bft) 97,50 %
22.01.2020 13:50 0,7 C 0,6 C 0,6 C 99 % 1037,0 hPa 0,0 l/m 0 min 0 min 55 W/m 0,0 km/h (0 Bft) 98,25 %
22.01.2020 13:54 0,7 C 0,6 C 0,6 C 99 % 1036,9 hPa 0,0 l/m 0 min 0 min 60 W/m 0,0 km/h (0 Bft) 94,55 %
22.01.2020 13:56 0,8 C 0,6 C 0,6 C 99 % 1036,9 hPa 0,0 l/m 0 min 0 min 60 W/m 0,0 km/h (0 Bft) 93,62 %
22.01.2020 13:58 0,8 C 0,6 C 0,6 C 99 % 1036,9 hPa 0,0 l/m 0 min 0 min 54 W/m 0,0 km/h (0 Bft) 95,74 %
22.01.2020 14:00 0,8 C 0,6 C 0,6 C 99 % 1036,9 hPa 0,0 l/m 0 min 0 min 55 W/m 0,0 km/h (0 Bft) 95,74 %
22.01.2020 14:02 0,8 C 0,6 C 0,6 C 99 % 1036,9 hPa 0,0 l/m 0 min 0 min 60 W/m 0,0 km/h (0 Bft) 96,08 %
22.01.2020 14:04 0,8 C 0,6 C 0,6 C 99 % 1036,9 hPa 0,0 l/m 0 min 0 min 56 W/m 0,0 km/h (0 Bft) 97,87 %
22.01.2020 14:06 0,8 C 0,6 C 0,6 C 99 % 1036,9 hPa 0,0 l/m 0 min 0 min 54 W/m 0,0 km/h (0 Bft) 97,92 %
22.01.2020 14:08 0,9 C 0,6 C 0,0 C 99 % 1036,8 hPa 0,0 l/m 0 min 0 min 52 W/m 0,0 km/h (0 Bft) 97,87 %
22.01.2020 14:10 0,9 C 0,6 C 0,6 C 99 % 1036,7 hPa 0,0 l/m 0 min 0 min 54 W/m 0,0 km/h (0 Bft) 97,87 %
22.01.2020 14:12 0,9 C 0,6 C 0,6 C 99 % 1036,8 hPa 0,0 l/m 0 min 0 min 67 W/m 0,0 km/h (0 Bft) 97,83 %
22.01.2020 14:14 0,9 C 0,6 C 0,6 C 99 % 1036,8 hPa 0,0 l/m 0 min 0 min 67 W/m 0,0 km/h (0 Bft) 97,87 %
22.01.2020 14:16 0,9 C 0,6 C 0,6 C 99 % 1036,8 hPa 0,0 l/m 0 min 0 min 55 W/m 0,0 km/h (0 Bft) 100,00 %
22.01.2020 14:18 1,0 C 0,6 C 0,6 C 99 % 1036,8 hPa 0,0 l/m 0 min 0 min 51 W/m 0,0 km/h (0 Bft) 100,00 %
22.01.2020 14:20 1,0 C 0,6 C 0,6 C 99 % 1036,8 hPa 0,0 l/m 0 min 0 min 49 W/m 0,0 km/h (0 Bft) 100,00 %
22.01.2020 14:22 1,0 C 0,6 C 0,6 C 99 % 1036,8 hPa 0,0 l/m 0 min 0 min 52 W/m 3,2 km/h (1 Bft) 100,00 %
22.01.2020 14:24 1,0 C 0,6 C 0,6 C 99 % 1036,8 hPa 0,0 l/m 0 min 0 min 50 W/m 6,4 km/h (2 Bft) 100,00 %
22.01.2020 14:26 1,1 C 0,6 C 0,6 C 99 % 1036,8 hPa 0,0 l/m 0 min 0 min 50 W/m 3,2 km/h (1 Bft) 100,00 %
22.01.2020 14:28 1,1 C 0,6 C 0,6 C 99 % 1036,7 hPa 0,0 l/m 0 min 0 min 50 W/m 6,4 km/h (2 Bft) 100,00 %
22.01.2020 14:30 1,1 C 0,6 C 0,6 C 99 % 1036,8 hPa 0,0 l/m 0 min 0 min 43 W/m 0,0 km/h (0 Bft) 97,87 %
22.01.2020 14:32 1,1 C 0,6 C 0,6 C 99 % 1036,8 hPa 0,0 l/m 0 min 0 min 40 W/m 0,0 km/h (0 Bft) 50,00 %
22.01.2020 14:34 1,1 C 0,6 C 0,0 C 99 % 1036,9 hPa 0,0 l/m 0 min 0 min 35 W/m 0,0 km/h (0 Bft) 100,00 %
22.01.2020 14:36 1,1 C 0,6 C 0,0 C 99 % 1036,8 hPa 0,0 l/m 0 min 0 min 30 W/m 0,0 km/h (0 Bft) 100,00 %
22.01.2020 14:38 1,1 C 0,6 C 0,0 C 99 % 1036,7 hPa 0,0 l/m 0 min 0 min 24 W/m 0,0 km/h (0 Bft) 100,00 %
22.01.2020 14:40 1,1 C 0,6 C 0,6 C 99 % 1036,8 hPa 0,0 l/m 0 min 0 min 20 W/m 0,0 km/h (0 Bft) 100,00 %
22.01.2020 14:42 1,1 C 0,6 C 0,6 C 99 % 1036,7 hPa 0,0 l/m 0 min 0 min 20 W/m 0,0 km/h (0 Bft) 97,87 %
22.01.2020 14:44 1,1 C 0,6 C 0,0 C 99 % 1036,7 hPa 0,0 l/m 0 min 0 min 22 W/m 0,0 km/h (0 Bft) 95,74 %
22.01.2020 14:46 1,1 C 0,6 C 0,0 C 99 % 1036,7 hPa 0,0 l/m 0 min 0 min 25 W/m 0,0 km/h (0 Bft) 100,00 %
22.01.2020 14:48 1,1 C 0,6 C 0,0 C 99 % 1036,8 hPa 0,0 l/m 0 min 0 min 24 W/m 0,0 km/h (0 Bft) 100,00 %
22.01.2020 14:50 1,1 C 0,6 C 0,0 C 99 % 1036,8 hPa 0,0 l/m 0 min 0 min 22 W/m 0,0 km/h (0 Bft) 100,00 %
22.01.2020 14:52 1,1 C 0,6 C 0,0 C 99 % 1036,7 hPa 0,0 l/m 0 min 0 min 19 W/m 0,0 km/h (0 Bft) 97,87 %
22.01.2020 14:54 1,1 C 0,6 C 0,0 C 99 % 1036,7 hPa 0,0 l/m 0 min 0 min 21 W/m 0,0 km/h (0 Bft) 100,00 %
22.01.2020 14:56 1,1 C 0,6 C 0,0 C 99 % 1036,7 hPa 0,0 l/m 0 min 0 min 19 W/m 0,0 km/h (0 Bft) 100,00 %
22.01.2020 14:58 1,1 C 0,6 C 0,0 C 99 % 1036,7 hPa 0,0 l/m 0 min 0 min 19 W/m 0,0 km/h (0 Bft) 95,74 %
22.01.2020 15:00 1,1 C 0,6 C 0,0 C 99 % 1036,7 hPa 0,0 l/m 0 min 0 min 19 W/m 0,0 km/h (0 Bft) 100,00 %
22.01.2020 15:02 1,1 C 0,6 C 0,0 C 99 % 1036,7 hPa 0,0 l/m 0 min 0 min 19 W/m 0,0 km/h (0 Bft) 97,87 %
22.01.2020 15:04 1,1 C 0,6 C 0,0 C 99 % 1036,7 hPa 0,0 l/m 0 min 0 min 19 W/m 0,0 km/h (0 Bft) 100,00 %
22.01.2020 15:06 1,1 C 0,6 C 0,0 C 99 % 1036,7 hPa 0,0 l/m 0 min 0 min 20 W/m 0,0 km/h (0 Bft) 100,00 %
22.01.2020 15:08 1,1 C 0,6 C 0,0 C 99 % 1036,7 hPa 0,0 l/m 0 min 0 min 24 W/m 0,0 km/h (0 Bft) 100,00 %
22.01.2020 15:10 1,1 C 0,6 C 0,0 C 99 % 1036,7 hPa 0,0 l/m 0 min 0 min 25 W/m 0,0 km/h (0 Bft) 100,00 %
22.01.2020 15:12 1,1 C 0,6 C 0,0 C 99 % 1036,7 hPa 0,0 l/m 0 min 0 min 25 W/m 6,4 km/h (2 Bft) 100,00 %
22.01.2020 15:14 1,1 C 0,6 C 0,0 C 99 % 1036,7 hPa 0,0 l/m 0 min 0 min 24 W/m 0,0 km/h (0 Bft) 97,87 %
22.01.2020 15:16 1,1 C 0,6 C 0,0 C 99 % 1036,7 hPa 0,0 l/m 0 min 0 min 22 W/m 0,0 km/h (0 Bft) 100,00 %
22.01.2020 15:18 1,1 C 0,6 C 0,6 C 99 % 1036,7 hPa 0,0 l/m 0 min 0 min 18 W/m 0,0 km/h (0 Bft) 100,00 %
22.01.2020 15:20 1,2 C 0,6 C 0,6 C 99 % 1036,7 hPa 0,0 l/m 0 min 0 min 14 W/m 0,0 km/h (0 Bft) 100,00 %
22.01.2020 15:22 1,2 C 0,6 C 0,0 C 99 % 1036,7 hPa 0,0 l/m 0 min 0 min 14 W/m 0,0 km/h (0 Bft) 100,00 %
22.01.2020 15:24 1,2 C 0,6 C 0,0 C 99 % 1036,7 hPa 0,0 l/m 0 min 0 min 15 W/m 0,0 km/h (0 Bft) 97,83 %
22.01.2020 15:26 1,2 C 0,6 C 0,0 C 99 % 1036,8 hPa 0,0 l/m 0 min 0 min 17 W/m 0,0 km/h (0 Bft) 100,00 %
22.01.2020 15:28 1,2 C 0,6 C 0,0 C 99 % 1036,7 hPa 0,0 l/m 0 min 0 min 18 W/m 0,0 km/h (0 Bft) 97,87 %
22.01.2020 15:30 1,2 C 0,6 C 0,0 C 99 % 1036,7 hPa 0,0 l/m 0 min 0 min 18 W/m 0,0 km/h (0 Bft) 97,87 %
22.01.2020 15:32 1,2 C 0,6 C 0,0 C 99 % 1036,7 hPa 0,0 l/m 0 min 0 min 20 W/m 0,0 km/h (0 Bft) 97,87 %
22.01.2020 15:34 1,2 C 0,6 C 0,6 C 99 % 1036,7 hPa 0,0 l/m 0 min 0 min 24 W/m 0,0 km/h (0 Bft) 97,87 %
22.01.2020 15:36 1,2 C 0,6 C 0,6 C 99 % 1036,7 hPa 0,0 l/m 0 min 0 min 25 W/m 0,0 km/h (0 Bft) 97,83 %
22.01.2020 15:38 1,2 C 0,6 C 0,6 C 99 % 1036,7 hPa 0,0 l/m 0 min 0 min 25 W/m 0,0 km/h (0 Bft) 97,87 %
22.01.2020 15:40 1,2 C 0,6 C 0,6 C 99 % 1036,7 hPa 0,0 l/m 0 min 0 min 24 W/m 0,0 km/h (0 Bft) 97,87 %
22.01.2020 15:42 1,2 C 0,6 C 0,6 C 99 % 1036,7 hPa 0,0 l/m 0 min 0 min 21 W/m 0,0 km/h (0 Bft) 97,87 %
22.01.2020 15:44 1,2 C 0,6 C 0,6 C 99 % 1036,7 hPa 0,0 l/m 0 min 0 min 19 W/m 0,0 km/h (0 Bft) 97,87 %
22.01.2020 15:46 1,2 C 0,6 C 0,6 C 99 % 1036,7 hPa 0,0 l/m 0 min 0 min 20 W/m 0,0 km/h (0 Bft) 97,83 %
22.01.2020 15:48 1,2 C 0,6 C 0,6 C 99 % 1036,7 hPa 0,0 l/m 0 min 0 min 17 W/m 0,0 km/h (0 Bft) 95,74 %
22.01.2020 15:50 1,3 C 0,6 C 0,6 C 99 % 1036,7 hPa 0,0 l/m 0 min 0 min 16 W/m 0,0 km/h (0 Bft) 95,74 %
22.01.2020 15:52 1,3 C 0,6 C 0,6 C 99 % 1036,7 hPa 0,0 l/m 0 min 0 min 16 W/m 0,0 km/h (0 Bft) 95,74 %
22.01.2020 15:54 1,3 C 0,6 C 0,6 C 99 % 1036,6 hPa 0,0 l/m 0 min 0 min 17 W/m 0,0 km/h (0 Bft) 93,62 %
22.01.2020 15:56 1,3 C 0,6 C 0,6 C 99 % 1036,7 hPa 0,0 l/m 0 min 0 min 16 W/m 0,0 km/h (0 Bft) 93,62 %
22.01.2020 15:58 1,3 C 0,6 C 0,0 C 99 % 1036,7 hPa 0,0 l/m 0 min 0 min 16 W/m 0,0 km/h (0 Bft) 93,48 %
22.01.2020 16:00 1,3 C 0,6 C 0,6 C 99 % 1036,7 hPa 0,0 l/m 0 min 0 min 16 W/m 0,0 km/h (0 Bft) 93,62 %
22.01.2020 16:02 1,3 C 0,6 C 0,6 C 99 % 1036,7 hPa 0,0 l/m 0 min 0 min 16 W/m 0,0 km/h (0 Bft) 95,74 %
22.01.2020 16:04 1,3 C 0,6 C 0,6 C 99 % 1036,7 hPa 0,0 l/m 0 min 0 min 15 W/m 0,0 km/h (0 Bft) 93,88 %
22.01.2020 16:06 1,3 C 0,6 C 0,6 C 99 % 1036,7 hPa 0,0 l/m 0 min 0 min 13 W/m 3,2 km/h (1 Bft) 93,62 %
22.01.2020 16:08 1,3 C 0,6 C 0,0 C 99 % 1036,7 hPa 0,0 l/m 0 min 0 min 11 W/m 3,2 km/h (1 Bft) 95,74 %
22.01.2020 16:10 1,3 C 0,6 C 0,0 C 99 % 1036,7 hPa 0,0 l/m 0 min 0 min 9 W/m 0,0 km/h (0 Bft) 95,65 %
22.01.2020 16:12 1,3 C 0,6 C 0,0 C 99 % 1036,7 hPa 0,0 l/m 0 min 0 min 10 W/m 0,0 km/h (0 Bft) 92,16 %
22.01.2020 16:14 1,3 C 0,6 C 0,6 C 99 % 1036,7 hPa 0,0 l/m 0 min 0 min 11 W/m 0,0 km/h (0 Bft) 92,68 %
22.01.2020 16:16 1,3 C 0,6 C 0,6 C 99 % 1036,7 hPa 0,0 l/m 0 min 0 min 10 W/m 0,0 km/h (0 Bft) 91,49 %
22.01.2020 16:18 1,3 C 0,6 C 0,6 C 99 % 1036,8 hPa 0,0 l/m 0 min 0 min 9 W/m 0,0 km/h (0 Bft) 91,49 %
22.01.2020 16:20 1,3 C 0,6 C 0,6 C 99 % 1036,7 hPa 0,0 l/m 0 min 0 min 9 W/m 3,2 km/h (1 Bft) 93,62 %
22.01.2020 16:22 1,3 C 0,6 C 0,6 C 99 % 1036,7 hPa 0,0 l/m 0 min 0 min 8 W/m 0,0 km/h (0 Bft) 93,62 %
22.01.2020 16:24 1,3 C 0,6 C 0,6 C 99 % 1036,7 hPa 0,0 l/m 0 min 0 min 7 W/m 0,0 km/h (0 Bft) 93,48 %
22.01.2020 16:26 1,3 C 0,6 C 0,6 C 99 % 1036,8 hPa 0,0 l/m 0 min 0 min 7 W/m 0,0 km/h (0 Bft) 95,74 %
22.01.2020 16:28 1,3 C 0,6 C 0,6 C 99 % 1036,7 hPa 0,0 l/m 0 min 0 min 7 W/m 0,0 km/h (0 Bft) 95,74 %
22.01.2020 16:30 1,3 C 0,6 C 0,6 C 99 % 1036,7 hPa 0,0 l/m 0 min 0 min 7 W/m 0,0 km/h (0 Bft) 95,74 %
22.01.2020 16:32 1,3 C 0,6 C 0,6 C 99 % 1036,7 hPa 0,0 l/m 0 min 0 min 7 W/m 0,0 km/h (0 Bft) 95,74 %
22.01.2020 16:34 1,3 C 0,6 C 0,6 C 99 % 1036,7 hPa 0,0 l/m 0 min 0 min 7 W/m 0,0 km/h (0 Bft) 93,62 %
22.01.2020 16:36 1,3 C 0,6 C 0,6 C 99 % 1036,7 hPa 0,0 l/m 0 min 0 min 5 W/m 0,0 km/h (0 Bft) 95,65 %
22.01.2020 16:38 1,3 C 0,6 C 0,6 C 99 % 1036,7 hPa 0,0 l/m 0 min 0 min 5 W/m 0,0 km/h (0 Bft) 97,87 %
22.01.2020 16:40 1,3 C 0,6 C 0,6 C 99 % 1036,7 hPa 0,0 l/m 0 min 0 min 5 W/m 0,0 km/h (0 Bft) 97,87 %
22.01.2020 16:42 1,3 C 0,6 C 0,6 C 99 % 1036,7 hPa 0,0 l/m 0 min 0 min 5 W/m 0,0 km/h (0 Bft) 97,87 %
22.01.2020 16:44 1,3 C 0,6 C 0,6 C 99 % 1036,7 hPa 0,0 l/m 0 min 0 min 0 W/m 0,0 km/h (0 Bft) 97,87 %
22.01.2020 16:46 1,3 C 0,6 C 0,6 C 99 % 1036,7 hPa 0,0 l/m 0 min 0 min 0 W/m 0,0 km/h (0 Bft) 97,83 %
22.01.2020 16:48 1,3 C 0,6 C 0,6 C 99 % 1036,7 hPa 0,0 l/m 0 min 0 min 0 W/m 0,0 km/h (0 Bft) 97,87 %
22.01.2020 16:50 1,3 C 0,6 C 0,6 C 99 % 1036,7 hPa 0,0 l/m 0 min 0 min 0 W/m 0,0 km/h (0 Bft) 93,62 %
22.01.2020 16:52 1,3 C 0,6 C 0,6 C 99 % 1036,7 hPa 0,0 l/m 0 min 0 min 0 W/m 0,0 km/h (0 Bft) 97,87 %
22.01.2020 16:54 1,3 C 0,6 C 0,6 C 99 % 1036,7 hPa 0,0 l/m 0 min 0 min 0 W/m 0,0 km/h (0 Bft) 95,74 %
22.01.2020 16:56 1,3 C 0,6 C 0,6 C 99 % 1036,7 hPa 0,0 l/m 0 min 0 min 0 W/m 0,0 km/h (0 Bft) 100,00 %
22.01.2020 16:58 1,3 C 0,6 C 0,6 C 99 % 1036,7 hPa 0,0 l/m 0 min 0 min 0 W/m 0,0 km/h (0 Bft) 100,00 %
22.01.2020 17:00 1,3 C 0,6 C 0,6 C 99 % 1036,7 hPa 0,0 l/m 0 min 0 min 0 W/m 0,0 km/h (0 Bft) 100,00 %
22.01.2020 17:02 1,3 C 0,6 C 0,6 C 99 % 1036,7 hPa 0,0 l/m 0 min 0 min 0 W/m 0,0 km/h (0 Bft) 100,00 %
22.01.2020 17:04 1,3 C 0,6 C 0,6 C 99 % 1036,8 hPa 0,0 l/m 0 min 0 min 0 W/m 0,0 km/h (0 Bft) 100,00 %
22.01.2020 17:06 1,3 C 0,6 C 0,6 C 99 % 1036,8 hPa 0,0 l/m 0 min 0 min 0 W/m 0,0 km/h (0 Bft) 96,15 %
22.01.2020 17:08 1,3 C 0,6 C 0,6 C 99 % 1036,7 hPa 0,0 l/m 0 min 0 min 0 W/m 0,0 km/h (0 Bft) 100,00 %
22.01.2020 17:10 1,3 C 0,6 C 0,6 C 99 % 1036,8 hPa 0,0 l/m 0 min 0 min 0 W/m 0,0 km/h (0 Bft) 100,00 %
22.01.2020 17:12 1,4 C 0,6 C 0,6 C 99 % 1036,7 hPa 0,0 l/m 0 min 0 min 0 W/m 0,0 km/h (0 Bft) 100,00 %
22.01.2020 17:14 1,3 C 0,6 C 0,6 C 99 % 1036,8 hPa 0,0 l/m 0 min 0 min 0 W/m 0,0 km/h (0 Bft) 100,00 %
22.01.2020 17:16 1,3 C 0,6 C 0,6 C 99 % 1036,8 hPa 0,0 l/m 0 min 0 min 0 W/m 0,0 km/h (0 Bft) 97,87 %
22.01.2020 17:18 1,4 C 0,6 C 0,6 C 100 % 1036,8 hPa 0,0 l/m 0 min 0 min 0 W/m 0,0 km/h (0 Bft) 100,00 %
22.01.2020 17:20 1,4 C 0,6 C 0,6 C 99 % 1036,8 hPa 0,0 l/m 0 min 0 min 0 W/m 0,0 km/h (0 Bft) 100,00 %
22.01.2020 17:22 1,4 C 0,6 C 0,6 C 100 % 1036,8 hPa 0,0 l/m 0 min 0 min 0 W/m 0,0 km/h (0 Bft) 100,00 %
22.01.2020 17:24 1,4 C 0,6 C 0,6 C 100 % 1036,8 hPa 0,0 l/m 0 min 0 min 0 W/m 0,0 km/h (0 Bft) 100,00 %
22.01.2020 17:26 1,4 C 0,6 C 0,6 C 100 % 1036,9 hPa 0,0 l/m 0 min 0 min 0 W/m 0,0 km/h (0 Bft) 100,00 %
22.01.2020 17:28 1,4 C 0,6 C 0,6 C 100 % 1036,8 hPa 0,0 l/m 0 min 0 min 0 W/m 0,0 km/h (0 Bft) 100,00 %
22.01.2020 17:30 1,4 C 0,6 C 0,6 C 100 % 1036,9 hPa 0,0 l/m 0 min 0 min 0 W/m 0,0 km/h (0 Bft) 97,87 %
22.01.2020 17:32 1,4 C 0,6 C 0,6 C 100 % 1036,9 hPa 0,0 l/m 0 min 0 min 0 W/m 0,0 km/h (0 Bft) 100,00 %
22.01.2020 17:34 1,4 C 0,6 C 0,6 C 100 % 1036,8 hPa 0,0 l/m 0 min 0 min 0 W/m 0,0 km/h (0 Bft) 100,00 %
22.01.2020 17:36 1,4 C 0,6 C 0,6 C 100 % 1036,9 hPa 0,0 l/m 0 min 0 min 0 W/m 0,0 km/h (0 Bft) 100,00 %
22.01.2020 17:38 1,4 C 0,6 C 0,6 C 100 % 1036,8 hPa 0,0 l/m 0 min 0 min 0 W/m 0,0 km/h (0 Bft) 100,00 %
22.01.2020 17:40 1,4 C 0,6 C 0,6 C 100 % 1036,8 hPa 0,0 l/m 0 min 0 min 0 W/m 0,0 km/h (0 Bft) 100,00 %
22.01.2020 17:42 1,4 C 0,6 C 0,6 C 100 % 1036,8 hPa 0,0 l/m 0 min 0 min 0 W/m 0,0 km/h (0 Bft) 100,00 %
22.01.2020 17:44 1,4 C 0,6 C 0,6 C 100 % 1036,8 hPa 0,0 l/m 0 min 0 min 0 W/m 0,0 km/h (0 Bft) 100,00 %
22.01.2020 17:46 1,4 C 0,6 C 0,6 C 100 % 1036,8 hPa 0,0 l/m 0 min 0 min 0 W/m 0,0 km/h (0 Bft) 100,00 %
22.01.2020 17:48 1,4 C 0,6 C 0,6 C 100 % 1036,8 hPa 0,0 l/m 0 min 0 min 0 W/m 0,0 km/h (0 Bft) 100,00 %
22.01.2020 17:50 1,4 C 0,6 C 0,6 C 100 % 1036,8 hPa 0,2 l/m 0 min 0 min 0 W/m 0,0 km/h (0 Bft) 100,00 %
22.01.2020 17:52 1,4 C 0,6 C 0,6 C 100 % 1036,8 hPa 0,0 l/m 0 min 0 min 0 W/m 0,0 km/h (0 Bft) 95,74 %
22.01.2020 17:54 1,4 C 0,6 C 0,6 C 100 % 1036,8 hPa 0,0 l/m 0 min 0 min 0 W/m 0,0 km/h (0 Bft) 100,00 %
22.01.2020 17:56 1,4 C 0,6 C 0,6 C 100 % 1036,8 hPa 0,0 l/m 0 min 0 min 0 W/m 0,0 km/h (0 Bft) 100,00 %
22.01.2020 17:58 1,4 C 1,1 C 0,6 C 100 % 1036,9 hPa 0,0 l/m 0 min 0 min 0 W/m 0,0 km/h (0 Bft) 100,00 %
22.01.2020 18:00 1,4 C 0,6 C 0,6 C 100 % 1036,8 hPa 0,0 l/m 0 min 0 min 0 W/m 0,0 km/h (0 Bft) 100,00 %
22.01.2020 18:02 1,4 C 0,6 C 0,6 C 100 % 1036,9 hPa 0,0 l/m 0 min 0 min 0 W/m 0,0 km/h (0 Bft) 100,00 %
22.01.2020 18:04 1,4 C 1,1 C 0,6 C 100 % 1036,9 hPa 0,0 l/m 0 min 0 min 0 W/m 0,0 km/h (0 Bft) 98,11 %
22.01.2020 18:06 1,4 C 1,1 C 0,6 C 100 % 1036,9 hPa 0,0 l/m 0 min 0 min 0 W/m 0,0 km/h (0 Bft) 97,87 %
22.01.2020 18:08 1,4 C 1,1 C 0,6 C 100 % 1037,0 hPa 0,0 l/m 0 min 0 min 0 W/m 0,0 km/h (0 Bft) 100,00 %
22.01.2020 18:10 1,4 C 1,1 C 0,6 C 100 % 1037,0 hPa 0,0 l/m 0 min 0 min 0 W/m 0,0 km/h (0 Bft) 97,87 %
22.01.2020 18:12 1,4 C 1,1 C 0,6 C 100 % 1037,0 hPa 0,0 l/m 0 min 0 min 0 W/m 0,0 km/h (0 Bft) 100,00 %
22.01.2020 18:14 1,4 C 1,1 C 0,6 C 100 % 1037,0 hPa 0,0 l/m 0 min 0 min 0 W/m 0,0 km/h (0 Bft) 100,00 %
22.01.2020 18:16 1,4 C 1,1 C 0,6 C 100 % 1037,0 hPa 0,0 l/m 0 min 0 min 0 W/m 0,0 km/h (0 Bft) 100,00 %
22.01.2020 18:18 1,4 C 1,1 C 0,6 C 100 % 1036,9 hPa 0,0 l/m 0 min 0 min 0 W/m 0,0 km/h (0 Bft) 100,00 %
22.01.2020 18:20 1,5 C 1,1 C 0,6 C 100 % 1037,0 hPa 0,0 l/m 0 min 0 min 0 W/m 0,0 km/h (0 Bft) 100,00 %
22.01.2020 18:22 1,5 C 1,1 C 0,6 C 100 % 1037,0 hPa 0,0 l/m 0 min 0 min 0 W/m 0,0 km/h (0 Bft) 97,87 %
22.01.2020 18:24 1,5 C 1,1 C 0,6 C 100 % 1037,1 hPa 0,0 l/m 0 min 0 min 0 W/m 0,0 km/h (0 Bft) 100,00 %
22.01.2020 18:26 1,5 C 1,1 C 0,6 C 100 % 1037,1 hPa 0,0 l/m 0 min 0 min 0 W/m 0,0 km/h (0 Bft) 100,00 %
22.01.2020 18:28 1,5 C 1,1 C 0,6 C 100 % 1037,2 hPa 0,0 l/m 0 min 0 min 0 W/m 0,0 km/h (0 Bft) 100,00 %
22.01.2020 18:30 1,5 C 1,1 C 0,6 C 100 % 1037,1 hPa 0,0 l/m 0 min 0 min 0 W/m 0,0 km/h (0 Bft) 97,87 %
22.01.2020 18:32 1,5 C 1,1 C 0,6 C 100 % 1037,2 hPa 0,0 l/m 0 min 0 min 0 W/m 0,0 km/h (0 Bft) 93,62 %
22.01.2020 18:34 1,5 C 1,1 C 0,6 C 100 % 1037,1 hPa 0,0 l/m 0 min 0 min 0 W/m 0,0 km/h (0 Bft) 97,87 %
22.01.2020 18:36 1,5 C 1,1 C 0,6 C 100 % 1037,1 hPa 0,0 l/m 0 min 0 min 0 W/m 0,0 km/h (0 Bft) 97,87 %
22.01.2020 18:38 1,5 C 1,1 C 0,6 C 100 % 1037,1 hPa 0,0 l/m 0 min 0 min 0 W/m 0,0 km/h (0 Bft) 97,83 %
22.01.2020 18:40 1,5 C 1,1 C 0,6 C 100 % 1037,1 hPa 0,0 l/m 0 min 0 min 0 W/m 0,0 km/h (0 Bft) 97,87 %
22.01.2020 18:42 1,5 C 1,1 C 0,6 C 100 % 1037,1 hPa 0,0 l/m 0 min 0 min 0 W/m 0,0 km/h (0 Bft) 93,62 %
22.01.2020 18:44 1,6 C 1,1 C 0,6 C 100 % 1037,1 hPa 0,0 l/m 0 min 0 min 0 W/m 0,0 km/h (0 Bft) 97,87 %
22.01.2020 18:46 1,6 C 1,1 C 0,6 C 100 % 1037,1 hPa 0,0 l/m 0 min 0 min 0 W/m 0,0 km/h (0 Bft) 95,74 %
22.01.2020 18:48 1,6 C 1,1 C 0,6 C 100 % 1037,1 hPa 0,0 l/m 0 min 0 min 0 W/m 0,0 km/h (0 Bft) 97,87 %
22.01.2020 18:50 1,6 C 1,1 C 0,6 C 100 % 1037,1 hPa 0,0 l/m 0 min 0 min 0 W/m 0,0 km/h (0 Bft) 95,65 %
22.01.2020 18:52 1,6 C 1,1 C 0,6 C 100 % 1037,2 hPa 0,0 l/m 0 min 0 min 0 W/m 0,0 km/h (0 Bft) 93,62 %
22.01.2020 18:54 1,6 C 1,1 C 0,6 C 100 % 1037,2 hPa 0,0 l/m 0 min 0 min 0 W/m 0,0 km/h (0 Bft) 97,87 %
22.01.2020 18:56 1,6 C 1,1 C 0,6 C 99 % 1037,0 hPa 0,0 l/m 0 min 0 min 0 W/m 0,0 km/h (0 Bft) 95,74 %
22.01.2020 18:58 1,6 C 1,1 C 0,6 C 99 % 1036,9 hPa 0,0 l/m 0 min 0 min 0 W/m 0,0 km/h (0 Bft) 93,62 %
22.01.2020 19:00 1,6 C 1,1 C 0,6 C 99 % 1037,0 hPa 0,0 l/m 0 min 0 min 0 W/m 0,0 km/h (0 Bft) 91,49 %
22.01.2020 19:02 1,6 C 1,1 C 0,6 C 99 % 1037,0 hPa 0,0 l/m 0 min 0 min 0 W/m 0,0 km/h (0 Bft) 93,48 %
22.01.2020 19:04 1,6 C 1,1 C 0,6 C 99 % 1037,0 hPa 0,0 l/m 0 min 0 min 0 W/m 0,0 km/h (0 Bft) 93,62 %
22.01.2020 19:06 1,6 C 1,1 C 0,6 C 99 % 1037,0 hPa 0,0 l/m 0 min 0 min 0 W/m 0,0 km/h (0 Bft) 91,49 %
22.01.2020 19:08 1,6 C 1,1 C 0,6 C 99 % 1037,0 hPa 0,0 l/m 0 min 0 min 0 W/m 0,0 km/h (0 Bft) 93,62 %
22.01.2020 19:10 1,6 C 1,1 C 0,6 C 99 % 1037,0 hPa 0,0 l/m 0 min 0 min 0 W/m 0,0 km/h (0 Bft) 93,62 %
22.01.2020 19:12 1,6 C 1,1 C 0,6 C 99 % 1036,9 hPa 0,0 l/m 0 min 0 min 0 W/m 0,0 km/h (0 Bft) 93,62 %
22.01.2020 19:14 1,6 C 1,1 C 0,6 C 99 % 1037,0 hPa 0,0 l/m 0 min 0 min 0 W/m 0,0 km/h (0 Bft) 93,48 %
22.01.2020 19:16 1,6 C 1,1 C 0,6 C 99 % 1037,0 hPa 0,0 l/m 0 min 0 min 0 W/m 0,0 km/h (0 Bft) 95,74 %
22.01.2020 19:18 1,6 C 1,1 C 0,6 C 99 % 1037,0 hPa 0,0 l/m 0 min 0 min 0 W/m 0,0 km/h (0 Bft) 95,74 %
22.01.2020 19:20 1,6 C 1,1 C 0,6 C 99 % 1037,0 hPa 0,0 l/m 0 min 0 min 0 W/m 0,0 km/h (0 Bft) 95,74 %
22.01.2020 19:22 1,6 C 1,1 C 0,6 C 99 % 1037,0 hPa 0,0 l/m 0 min 0 min 0 W/m 0,0 km/h (0 Bft) 93,62 %
22.01.2020 19:24 1,7 C 1,1 C 0,6 C 99 % 1037,0 hPa 0,0 l/m 0 min 0 min 0 W/m 0,0 km/h (0 Bft) 97,87 %
22.01.2020 19:26 1,7 C 1,1 C 0,6 C 99 % 1037,1 hPa 0,0 l/m 0 min 0 min 0 W/m 0,0 km/h (0 Bft) 91,30 %
22.01.2020 19:28 1,7 C 1,1 C 0,6 C 99 % 1037,1 hPa 0,0 l/m 0 min 0 min 0 W/m 0,0 km/h (0 Bft) 95,74 %
22.01.2020 19:30 1,7 C 1,1 C 0,6 C 99 % 1037,1 hPa 0,0 l/m 0 min 0 min 0 W/m 0,0 km/h (0 Bft) 91,49 %
22.01.2020 19:32 1,7 C 1,1 C 0,6 C 99 % 1037,0 hPa 0,0 l/m 0 min 0 min 0 W/m 0,0 km/h (0 Bft) 95,74 %
22.01.2020 19:34 1,7 C 1,1 C 0,6 C 99 % 1037,0 hPa 0,0 l/m 0 min 0 min 0 W/m 0,0 km/h (0 Bft) 93,62 %
22.01.2020 19:36 1,7 C 1,1 C 0,6 C 99 % 1037,0 hPa 0,0 l/m 0 min 0 min 0 W/m 0,0 km/h (0 Bft) 93,48 %
22.01.2020 19:38 1,7 C 1,1 C 0,6 C 99 % 1037,0 hPa 0,0 l/m 0 min 0 min 0 W/m 0,0 km/h (0 Bft) 97,87 %
22.01.2020 19:40 1,7 C 1,1 C 0,6 C 99 % 1037,0 hPa 0,0 l/m 0 min 0 min 0 W/m 0,0 km/h (0 Bft) 95,74 %
22.01.2020 19:42 1,7 C 1,1 C 0,6 C 99 % 1037,0 hPa 0,0 l/m 0 min 0 min 0 W/m 0,0 km/h (0 Bft) 97,87 %
22.01.2020 19:44 1,7 C 1,1 C 0,6 C 99 % 1037,0 hPa 0,0 l/m 0 min 0 min 0 W/m 0,0 km/h (0 Bft) 97,87 %
22.01.2020 19:46 1,7 C 1,1 C 0,6 C 99 % 1037,0 hPa 0,0 l/m 0 min 0 min 0 W/m 0,0 km/h (0 Bft) 97,87 %
22.01.2020 19:48 1,7 C 1,1 C 0,6 C 99 % 1037,0 hPa 0,0 l/m 0 min 0 min 0 W/m 0,0 km/h (0 Bft) 97,83 %
22.01.2020 19:50 1,7 C 1,1 C 0,6 C 100 % 1037,0 hPa 0,0 l/m 0 min 0 min 0 W/m 0,0 km/h (0 Bft) 97,87 %
22.01.2020 19:52 1,7 C 1,1 C 0,6 C 99 % 1037,1 hPa 0,0 l/m 0 min 0 min 0 W/m 0,0 km/h (0 Bft) 97,87 %
22.01.2020 19:54 1,7 C 1,1 C 0,6 C 99 % 1037,1 hPa 0,0 l/m 0 min 0 min 0 W/m 0,0 km/h (0 Bft) 97,87 %
22.01.2020 19:56 1,7 C 1,1 C 0,6 C 99 % 1037,1 hPa 0,0 l/m 0 min 0 min 0 W/m 0,0 km/h (0 Bft) 97,87 %
22.01.2020 19:58 1,7 C 1,1 C 0,6 C 99 % 1037,2 hPa 0,0 l/m 0 min 0 min 0 W/m 0,0 km/h (0 Bft) 100,00 %
22.01.2020 20:00 1,7 C 1,1 C 0,6 C 100 % 1037,2 hPa 0,0 l/m 0 min 0 min 0 W/m 0,0 km/h (0 Bft) 97,87 %
22.01.2020 20:02 1,7 C 1,1 C 0,6 C 100 % 1037,2 hPa 0,0 l/m 0 min 0 min 0 W/m 0,0 km/h (0 Bft) 100,00 %
22.01.2020 20:04 1,7 C 1,1 C 0,6 C 100 % 1037,1 hPa 0,0 l/m 0 min 0 min 0 W/m 0,0 km/h (0 Bft) 100,00 %
22.01.2020 20:06 1,7 C 1,1 C 0,6 C 99 % 1037,2 hPa 0,0 l/m 0 min 0 min 0 W/m 0,0 km/h (0 Bft) 100,00 %
22.01.2020 20:08 1,7 C 1,1 C 0,6 C 100 % 1037,3 hPa 0,0 l/m 0 min 0 min 0 W/m 0,0 km/h (0 Bft) 100,00 %
22.01.2020 20:10 1,7 C 1,1 C 0,6 C 100 % 1037,3 hPa 0,0 l/m 0 min 0 min 0 W/m 0,0 km/h (0 Bft) 100,00 %
22.01.2020 20:12 1,7 C 1,1 C 0,6 C 100 % 1037,2 hPa 0,0 l/m 0 min 0 min 0 W/m 0,0 km/h (0 Bft) 100,00 %
22.01.2020 20:14 1,7 C 1,1 C 0,6 C 100 % 1037,2 hPa 0,0 l/m 0 min 0 min 0 W/m 0,0 km/h (0 Bft) 100,00 %
22.01.2020 20:16 1,7 C 1,1 C 0,6 C 100 % 1037,1 hPa 0,0 l/m 0 min 0 min 0 W/m 0,0 km/h (0 Bft) 100,00 %
22.01.2020 20:18 1,7 C 1,1 C 0,6 C 100 % 1037,1 hPa 0,0 l/m 0 min 0 min 0 W/m 0,0 km/h (0 Bft) 100,00 %
22.01.2020 20:20 1,7 C 1,1 C 0,6 C 100 % 1037,2 hPa 0,0 l/m 0 min 0 min 0 W/m 0,0 km/h (0 Bft) 100,00 %
22.01.2020 20:22 1,7 C 1,1 C 0,6 C 100 % 1037,1 hPa 0,0 l/m 0 min 0 min 0 W/m 0,0 km/h (0 Bft) 97,87 %
22.01.2020 20:24 1,7 C 1,1 C 0,6 C 100 % 1037,1 hPa 0,0 l/m 0 min 0 min 0 W/m 0,0 km/h (0 Bft) 97,92 %
22.01.2020 20:26 1,7 C 1,1 C 0,6 C 100 % 1037,2 hPa 0,0 l/m 0 min 0 min 0 W/m 0,0 km/h (0 Bft) 97,87 %
22.01.2020 20:28 1,7 C 1,1 C 0,6 C 100 % 1037,3 hPa 0,0 l/m 0 min 0 min 0 W/m 0,0 km/h (0 Bft) 100,00 %
22.01.2020 20:30 1,7 C 1,1 C 0,6 C 100 % 1037,3 hPa 0,0 l/m 0 min 0 min 0 W/m 0,0 km/h (0 Bft) 100,00 %
22.01.2020 20:32 1,7 C 1,1 C 0,6 C 100 % 1037,3 hPa 0,0 l/m 0 min 0 min 0 W/m 0,0 km/h (0 Bft) 100,00 %
22.01.2020 20:34 1,7 C 1,1 C 0,6 C 100 % 1037,3 hPa 0,0 l/m 0 min 0 min 0 W/m 0,0 km/h (0 Bft) 100,00 %
22.01.2020 20:36 1,7 C 1,1 C 0,6 C 100 % 1037,3 hPa 0,0 l/m 0 min 0 min 0 W/m 0,0 km/h (0 Bft) 97,87 %
22.01.2020 20:38 1,8 C 1,1 C 0,6 C 100 % 1037,3 hPa 0,0 l/m 0 min 0 min 0 W/m 0,0 km/h (0 Bft) 100,00 %
22.01.2020 20:40 1,8 C 1,1 C 0,6 C 100 % 1037,3 hPa 0,0 l/m 0 min 0 min 0 W/m 0,0 km/h (0 Bft) 100,00 %
22.01.2020 20:42 1,8 C 1,1 C 0,6 C 100 % 1037,3 hPa 0,0 l/m 0 min 0 min 0 W/m 0,0 km/h (0 Bft) 97,92 %
22.01.2020 20:44 1,8 C 1,1 C 0,6 C 100 % 1037,3 hPa 0,0 l/m 0 min 0 min 0 W/m 0,0 km/h (0 Bft) 100,00 %
22.01.2020 20:46 1,8 C 1,1 C 0,6 C 100 % 1037,3 hPa 0,0 l/m 0 min 0 min 0 W/m 0,0 km/h (0 Bft) 100,00 %
22.01.2020 20:48 1,8 C 1,1 C 0,6 C 100 % 1037,2 hPa 0,0 l/m 0 min 0 min 0 W/m 0,0 km/h (0 Bft) 100,00 %
22.01.2020 20:50 1,8 C 1,1 C 0,6 C 100 % 1037,3 hPa 0,0 l/m 0 min 0 min 0 W/m 0,0 km/h (0 Bft) 100,00 %
22.01.2020 20:52 1,8 C 1,1 C 0,6 C 100 % 1037,3 hPa 0,0 l/m 0 min 0 min 0 W/m 0,0 km/h (0 Bft) 97,87 %
22.01.2020 20:54 1,8 C 1,1 C 0,6 C 100 % 1037,3 hPa 0,0 l/m 0 min 0 min 0 W/m 0,0 km/h (0 Bft) 100,00 %
22.01.2020 20:56 1,8 C 1,1 C 0,6 C 100 % 1037,3 hPa 0,0 l/m 0 min 0 min 0 W/m 0,0 km/h (0 Bft) 100,00 %
22.01.2020 20:58 1,8 C 1,1 C 0,6 C 100 % 1037,3 hPa 0,0 l/m 0 min 0 min 0 W/m 0,0 km/h (0 Bft) 100,00 %
22.01.2020 21:00 1,8 C 1,1 C 0,6 C 100 % 1037,3 hPa 0,0 l/m 0 min 0 min 0 W/m 0,0 km/h (0 Bft) 100,00 %
22.01.2020 21:02 1,8 C 1,1 C 0,6 C 100 % 1037,3 hPa 0,0 l/m 0 min 0 min 0 W/m 0,0 km/h (0 Bft) 100,00 %
22.01.2020 21:04 1,8 C 1,1 C 0,6 C 100 % 1037,3 hPa 0,0 l/m 0 min 0 min 0 W/m 0,0 km/h (0 Bft) 97,83 %
22.01.2020 21:06 1,7 C 1,1 C 0,6 C 100 % 1037,2 hPa 0,0 l/m 0 min 0 min 0 W/m 0,0 km/h (0 Bft) 100,00 %
22.01.2020 21:08 1,7 C 1,1 C 0,6 C 100 % 1037,3 hPa 0,0 l/m 0 min 0 min 0 W/m 0,0 km/h (0 Bft) 100,00 %
22.01.2020 21:10 1,8 C 1,1 C 0,6 C 100 % 1037,3 hPa 0,0 l/m 0 min 0 min 0 W/m 0,0 km/h (0 Bft) 95,83 %
22.01.2020 21:12 1,8 C 1,1 C 0,6 C 100 % 1037,3 hPa 0,0 l/m 0 min 0 min 0 W/m 0,0 km/h (0 Bft) 95,83 %
22.01.2020 21:14 1,7 C 1,1 C 0,6 C 100 % 1037,2 hPa 0,0 l/m 0 min 0 min 0 W/m 0,0 km/h (0 Bft) 97,87 %
22.01.2020 21:16 1,7 C 1,1 C 0,6 C 100 % 1037,3 hPa 0,0 l/m 0 min 0 min 0 W/m 0,0 km/h (0 Bft) 97,92 %
22.01.2020 21:18 1,7 C 1,1 C 0,6 C 100 % 1037,3 hPa 0,0 l/m 0 min 0 min 0 W/m 0,0 km/h (0 Bft) 95,83 %
22.01.2020 21:20 1,7 C 1,1 C 0,6 C 100 % 1037,3 hPa 0,0 l/m 0 min 0 min 0 W/m 0,0 km/h (0 Bft) 97,87 %
22.01.2020 21:22 1,7 C 1,1 C 0,6 C 100 % 1037,2 hPa 0,0 l/m 0 min 0 min 0 W/m 0,0 km/h (0 Bft) 97,83 %
22.01.2020 21:24 1,7 C 1,1 C 0,6 C 100 % 1037,2 hPa 0,0 l/m 0 min 0 min 0 W/m 0,0 km/h (0 Bft) 97,87 %
22.01.2020 21:26 1,7 C 1,1 C 0,6 C 100 % 1037,2 hPa 0,0 l/m 0 min 0 min 0 W/m 0,0 km/h (0 Bft) 97,87 %
22.01.2020 21:28 1,7 C 1,1 C 0,6 C 100 % 1037,3 hPa 0,0 l/m 0 min 0 min 0 W/m 0,0 km/h (0 Bft) 91,49 %
22.01.2020 21:30 1,7 C 1,1 C 0,6 C 100 % 1037,4 hPa 0,0 l/m 0 min 0 min 0 W/m 0,0 km/h (0 Bft) 97,87 %
22.01.2020 21:32 1,7 C 1,1 C 0,6 C 100 % 1037,3 hPa 0,0 l/m 0 min 0 min 0 W/m 0,0 km/h (0 Bft) 97,56 %
22.01.2020 21:34 1,7 C 1,1 C 0,6 C 100 % 1037,3 hPa 0,0 l/m 0 min 0 min 0 W/m 0,0 km/h (0 Bft) 97,87 %
22.01.2020 21:36 1,7 C 1,1 C 0,6 C 100 % 1037,3 hPa 0,0 l/m 0 min 0 min 0 W/m 0,0 km/h (0 Bft) 95,83 %
22.01.2020 21:38 1,7 C 1,1 C 0,6 C 100 % 1037,4 hPa 0,0 l/m 0 min 0 min 0 W/m 0,0 km/h (0 Bft) 95,74 %
22.01.2020 21:40 1,7 C 1,1 C 0,6 C 100 % 1037,3 hPa 0,0 l/m 0 min 0 min 0 W/m 0,0 km/h (0 Bft) 97,87 %
22.01.2020 21:42 1,7 C 1,1 C 0,6 C 100 % 1037,3 hPa 0,0 l/m 0 min 0 min 0 W/m 0,0 km/h (0 Bft) 95,83 %
22.01.2020 21:44 1,7 C 1,1 C 0,6 C 100 % 1037,3 hPa 0,0 l/m 0 min 0 min 0 W/m 0,0 km/h (0 Bft) 95,83 %
22.01.2020 21:46 1,7 C 1,1 C 0,6 C 100 % 1037,4 hPa 0,0 l/m 0 min 0 min 0 W/m 0,0 km/h (0 Bft) 93,75 %
22.01.2020 21:48 1,7 C 1,1 C 0,6 C 100 % 1037,4 hPa 0,0 l/m 0 min 0 min 0 W/m 0,0 km/h (0 Bft) 93,62 %
22.01.2020 21:50 1,7 C 1,1 C 0,6 C 100 % 1037,4 hPa 0,0 l/m 0 min 0 min 0 W/m 0,0 km/h (0 Bft) 93,62 %
22.01.2020 21:52 1,7 C 1,1 C 0,6 C 100 % 1037,4 hPa 0,0 l/m 0 min 0 min 0 W/m 0,0 km/h (0 Bft) 95,74 %
22.01.2020 21:54 1,6 C 1,1 C 0,6 C 100 % 1037,4 hPa 0,0 l/m 0 min 0 min 0 W/m 0,0 km/h (0 Bft) 97,87 %
22.01.2020 21:56 1,6 C 1,1 C 0,6 C 100 % 1037,5 hPa 0,0 l/m 0 min 0 min 0 W/m 0,0 km/h (0 Bft) 93,62 %
22.01.2020 21:58 1,6 C 1,1 C 0,6 C 100 % 1037,5 hPa 0,0 l/m 0 min 0 min 0 W/m 0,0 km/h (0 Bft) 97,56 %
22.01.2020 22:00 1,6 C 1,1 C 0,6 C 100 % 1037,6 hPa 0,0 l/m 0 min 0 min 0 W/m 0,0 km/h (0 Bft) 97,87 %
22.01.2020 22:02 1,6 C 1,1 C 0,6 C 100 % 1037,6 hPa 0,0 l/m 0 min 0 min 0 W/m 0,0 km/h (0 Bft) 93,88 %
22.01.2020 22:04 1,6 C 1,1 C 0,6 C 100 % 1037,5 hPa 0,0 l/m 0 min 0 min 0 W/m 0,0 km/h (0 Bft) 97,87 %
22.01.2020 22:06 1,6 C 1,1 C 0,6 C 100 % 1037,5 hPa 0,0 l/m 0 min 0 min 0 W/m 0,0 km/h (0 Bft) 95,74 %
22.01.2020 22:08 1,6 C 1,1 C 0,6 C 100 % 1037,5 hPa 0,0 l/m 0 min 0 min 0 W/m 0,0 km/h (0 Bft) 97,92 %
22.01.2020 22:10 1,6 C 1,1 C 0,6 C 100 % 1037,5 hPa 0,0 l/m 0 min 0 min 0 W/m 0,0 km/h (0 Bft) 97,87 %
22.01.2020 22:12 1,6 C 1,1 C 0,6 C 100 % 1037,5 hPa 0,0 l/m 0 min 0 min 0 W/m 0,0 km/h (0 Bft) 97,87 %
22.01.2020 22:14 1,6 C 1,1 C 0,6 C 100 % 1037,5 hPa 0,0 l/m 0 min 0 min 0 W/m 0,0 km/h (0 Bft) 97,92 %
22.01.2020 22:16 1,6 C 1,1 C 0,6 C 100 % 1037,6 hPa 0,0 l/m 0 min 0 min 0 W/m 0,0 km/h (0 Bft) 97,87 %
22.01.2020 22:18 1,6 C 1,1 C 0,6 C 100 % 1037,6 hPa 0,0 l/m 0 min 0 min 0 W/m 0,0 km/h (0 Bft) 95,74 %
22.01.2020 22:20 1,6 C 1,1 C 0,6 C 100 % 1037,5 hPa 0,0 l/m 0 min 0 min 0 W/m 0,0 km/h (0 Bft) 97,83 %
22.01.2020 22:22 1,6 C 1,1 C 0,6 C 100 % 1037,4 hPa 0,0 l/m 0 min 0 min 0 W/m 0,0 km/h (0 Bft) 97,87 %
22.01.2020 22:24 1,7 C 1,1 C 0,6 C 100 % 1037,5 hPa 0,0 l/m 0 min 0 min 0 W/m 0,0 km/h (0 Bft) 48,72 %
22.01.2020 22:26 1,7 C 1,1 C 0,6 C 100 % 1037,5 hPa 0,0 l/m 0 min 0 min 0 W/m 0,0 km/h (0 Bft) 100,00 %
22.01.2020 22:28 1,6 C 1,1 C 0,6 C 100 % 1037,5 hPa 0,0 l/m 0 min 0 min 0 W/m 0,0 km/h (0 Bft) 100,00 %
22.01.2020 22:30 1,7 C 1,1 C 0,6 C 100 % 1037,5 hPa 0,0 l/m 0 min 0 min 0 W/m 0,0 km/h (0 Bft) 97,92 %
22.01.2020 22:32 1,7 C 1,1 C 0,6 C 100 % 1037,5 hPa 0,0 l/m 0 min 0 min 0 W/m 0,0 km/h (0 Bft) 97,92 %
22.01.2020 22:34 1,6 C 1,1 C 0,6 C 100 % 1037,5 hPa 0,0 l/m 0 min 0 min 0 W/m 0,0 km/h (0 Bft) 97,87 %
22.01.2020 22:36 1,6 C 1,1 C 0,6 C 100 % 1037,6 hPa 0,0 l/m 0 min 0 min 0 W/m 0,0 km/h (0 Bft) 97,87 %
22.01.2020 22:38 1,6 C 1,1 C 0,6 C 100 % 1037,6 hPa 0,0 l/m 0 min 0 min 0 W/m 0,0 km/h (0 Bft) 97,92 %
22.01.2020 22:40 1,6 C 1,1 C 0,6 C 100 % 1037,7 hPa 0,0 l/m 0 min 0 min 0 W/m 0,0 km/h (0 Bft) 97,87 %
22.01.2020 22:42 1,6 C 1,1 C 0,6 C 100 % 1037,6 hPa 0,0 l/m 0 min 0 min 0 W/m 0,0 km/h (0 Bft) 97,87 %
22.01.2020 22:44 1,7 C 1,1 C 0,6 C 100 % 1037,5 hPa 0,0 l/m 0 min 0 min 0 W/m 0,0 km/h (0 Bft) 97,87 %
22.01.2020 22:46 1,6 C 1,1 C 0,6 C 100 % 1037,5 hPa 0,0 l/m 0 min 0 min 0 W/m 0,0 km/h (0 Bft) 97,87 %
22.01.2020 22:48 1,7 C 1,1 C 0,6 C 100 % 1037,5 hPa 0,0 l/m 0 min 0 min 0 W/m 0,0 km/h (0 Bft) 97,92 %
22.01.2020 22:50 1,6 C 1,1 C 0,6 C 100 % 1037,5 hPa 0,0 l/m 0 min 0 min 0 W/m 3,2 km/h (1 Bft) 97,87 %
22.01.2020 22:52 1,6 C 1,1 C 0,6 C 100 % 1037,5 hPa 0,0 l/m 0 min 0 min 0 W/m 0,0 km/h (0 Bft) 97,87 %
22.01.2020 22:54 1,6 C 1,1 C 0,6 C 100 % 1037,5 hPa 0,0 l/m 0 min 0 min 0 W/m 0,0 km/h (0 Bft) 93,62 %
22.01.2020 22:56 1,6 C 1,1 C 0,6 C 100 % 1037,5 hPa 0,0 l/m 0 min 0 min 0 W/m 0,0 km/h (0 Bft) 97,83 %
22.01.2020 22:58 1,6 C 1,1 C 0,6 C 100 % 1037,4 hPa 0,0 l/m 0 min 0 min 0 W/m 0,0 km/h (0 Bft) 97,62 %
22.01.2020 23:00 1,6 C 1,1 C 0,6 C 100 % 1037,4 hPa 0,0 l/m 0 min 0 min 0 W/m 0,0 km/h (0 Bft) 97,83 %
22.01.2020 23:02 1,7 C 1,1 C 0,6 C 100 % 1037,4 hPa 0,0 l/m 0 min 0 min 0 W/m 0,0 km/h (0 Bft) 96,00 %
22.01.2020 23:04 1,6 C 1,1 C 0,6 C 100 % 1037,4 hPa 0,0 l/m 0 min 0 min 0 W/m 0,0 km/h (0 Bft) 97,87 %
22.01.2020 23:06 1,6 C 1,1 C 0,6 C 100 % 1037,5 hPa 0,0 l/m 0 min 0 min 0 W/m 0,0 km/h (0 Bft) 95,74 %
22.01.2020 23:08 1,6 C 1,1 C 0,6 C 100 % 1037,5 hPa 0,0 l/m 0 min 0 min 0 W/m 0,0 km/h (0 Bft) 97,92 %
22.01.2020 23:10 1,6 C 1,1 C 0,6 C 100 % 1037,4 hPa 0,0 l/m 0 min 0 min 0 W/m 0,0 km/h (0 Bft) 97,87 %
22.01.2020 23:12 1,6 C 1,1 C 0,6 C 100 % 1037,4 hPa 0,0 l/m 0 min 0 min 0 W/m 0,0 km/h (0 Bft) 95,83 %
22.01.2020 23:14 1,6 C 1,1 C 0,6 C 100 % 1037,5 hPa 0,0 l/m 0 min 0 min 0 W/m 0,0 km/h (0 Bft) 97,87 %
22.01.2020 23:16 1,6 C 1,1 C 0,6 C 100 % 1037,4 hPa 0,0 l/m 0 min 0 min 0 W/m 0,0 km/h (0 Bft) 85,11 %
22.01.2020 23:18 1,6 C 1,1 C 0,6 C 100 % 1037,4 hPa 0,0 l/m 0 min 0 min 0 W/m 0,0 km/h (0 Bft) 67,44 %
22.01.2020 23:20 1,6 C 1,1 C 0,6 C 100 % 1037,4 hPa 0,0 l/m 0 min 0 min 0 W/m 0,0 km/h (0 Bft) 97,87 %
22.01.2020 23:22 1,6 C 1,1 C 0,6 C 100 % 1037,5 hPa 0,0 l/m 0 min 0 min 0 W/m 0,0 km/h (0 Bft) 95,74 %
22.01.2020 23:24 1,6 C 1,1 C 0,6 C 100 % 1037,5 hPa 0,0 l/m 0 min 0 min 0 W/m 0,0 km/h (0 Bft) 97,87 %
22.01.2020 23:26 1,6 C 1,1 C 0,6 C 100 % 1037,5 hPa 0,0 l/m 0 min 0 min 0 W/m 0,0 km/h (0 Bft) 97,87 %
22.01.2020 23:28 1,7 C 1,1 C 0,6 C 100 % 1037,5 hPa 0,0 l/m 0 min 0 min 0 W/m 0,0 km/h (0 Bft) 97,87 %
22.01.2020 23:30 1,7 C 1,1 C 0,6 C 100 % 1037,4 hPa 0,0 l/m 0 min 0 min 0 W/m 0,0 km/h (0 Bft) 97,83 %
22.01.2020 23:32 1,7 C 1,1 C 0,6 C 100 % 1037,4 hPa 0,0 l/m 0 min 0 min 0 W/m 0,0 km/h (0 Bft) 97,87 %
22.01.2020 23:34 1,7 C 1,1 C 0,6 C 100 % 1037,3 hPa 0,0 l/m 0 min 0 min 0 W/m 0,0 km/h (0 Bft) 97,87 %
22.01.2020 23:36 1,7 C 1,1 C 0,6 C 100 % 1037,4 hPa 0,0 l/m 0 min 0 min 0 W/m 0,0 km/h (0 Bft) 100,00 %
22.01.2020 23:38 1,7 C 1,1 C 0,6 C 100 % 1037,3 hPa 0,0 l/m 0 min 0 min 0 W/m 0,0 km/h (0 Bft) 100,00 %
22.01.2020 23:40 1,7 C 1,1 C 0,6 C 100 % 1037,3 hPa 0,0 l/m 0 min 0 min 0 W/m 3,2 km/h (1 Bft) 100,00 %
22.01.2020 23:42 1,7 C 1,1 C 0,6 C 100 % 1037,3 hPa 0,0 l/m 0 min 0 min 0 W/m 3,2 km/h (1 Bft) 100,00 %
22.01.2020 23:44 1,7 C 1,1 C 0,6 C 100 % 1037,4 hPa 0,0 l/m 0 min 0 min 0 W/m 0,0 km/h (0 Bft) 100,00 %
22.01.2020 23:46 1,7 C 1,1 C 0,6 C 100 % 1037,4 hPa 0,0 l/m 0 min 0 min 0 W/m 3,2 km/h (1 Bft) 97,87 %
22.01.2020 23:48 1,7 C 1,1 C 0,6 C 100 % 1037,4 hPa 0,0 l/m 0 min 0 min 0 W/m 0,0 km/h (0 Bft) 97,87 %
22.01.2020 23:50 1,7 C 1,1 C 0,6 C 100 % 1037,3 hPa 0,0 l/m 0 min 0 min 0 W/m 0,0 km/h (0 Bft) 95,74 %
22.01.2020 23:52 1,7 C 1,1 C 0,6 C 100 % 1037,4 hPa 0,0 l/m 0 min 0 min 0 W/m 0,0 km/h (0 Bft) 97,87 %
22.01.2020 23:54 1,7 C 1,1 C 0,6 C 100 % 1037,3 hPa 0,0 l/m 0 min 0 min 0 W/m 0,0 km/h (0 Bft) 97,83 %
22.01.2020 23:56 1,7 C 1,1 C 0,6 C 100 % 1037,4 hPa 0,0 l/m 0 min 0 min 0 W/m 0,0 km/h (0 Bft) 97,87 %
22.01.2020 23:58 1,7 C 1,1 C 0,6 C 100 % 1037,3 hPa 0,0 l/m 0 min 0 min 0 W/m 3,2 km/h (1 Bft) 97,87 %
_ Min-Zeit 00:00 00:00 00:00 00:00 15:54 - - - - 00:00 00:02
Minimum _ -3,1 C -3,9 C -3,9 C 96 % 1036,6 hPa - - - - 0,0 km/h (0 Bft) 9,09 %
_ Max-Zeit 20:38 17:58 13:50 17:18 00:42 17:50 00:00 00:00 12:04 00:40 00:00
Maximum _ 1,8 C 1,1 C 0,6 C 100 % 1039,7 hPa 0,2 l/m 0 min 0 min 106 W/m 9,7 km/h
NW (2 Bft)
100,00 %
Durchschnitt _ -0,4 C -0,8 C -1,1 C 99 % 1037,6 hPa #0,2 l/m #0 min. #0 min. 47 W/m 0,4 km/h (0 Bft) 96,96 %
© 2020 W. Hausmann